tititudorancea.com
Station Historical Data
Daily Summary for February 12, 2019 Units:  Both    English   Metric
« Previous Day
Next Day »
Daily Weekly Monthly Yearly Custom
  High: Low: Average:
Temperature: TemperatureF °F /  -17.8 °C 50.5 °F /  10.3 °C 58.4 °F /  14.7 °C
Dew Point: DewpointF °F /  -17.8 °C 33.9 °F /  1.1 °C 46.3 °F /  7.9 °C
Humidity: Humidity % 36 % 66 %
Wind Speed: WindSpeedMPH mph /  0 km/h - 11.6 mph /  18.7 km/h
Wind Gust: WindSpeedGustMPH mph /  0 km/h - -
Wind:- - West
Pressure: PressureIn in /  0 hPa 29.28 in /  991.4 hPa -
Precipitation: 0.06 in /  1.52 mm    
Historical Graphs
 
 
Ararat weather Find more about Weather in Ararat, AU


 



 


Tabular Data for February 12, 2019
Time Temperature Dew Point Pressure Wind Wind Speed Wind Gust Humidity Rainfall Rate (Hourly)
TemperatureF °F /  -17.8 °C DewpointF °F /  -17.8 °C PressureIn in /  0 hPa Calm     Humidity % HourlyPrecipIn in /  0 mm
00:04 63.5 °F /  17.5 °C 54.7 °F /  12.6 °C 29.41 in /  995.8 hPa NW 8.1 mph /  13 km/h 3.8 mph /  6.1 km/h 73 % 0.00 in /  0 mm
00:09 63.5 °F /  17.5 °C 54.7 °F /  12.6 °C 29.41 in /  995.8 hPa WNW 12.7 mph /  20.4 km/h 6.5 mph /  10.5 km/h 73 % 0.00 in /  0 mm
00:14 63.5 °F /  17.5 °C 54.3 °F /  12.4 °C 29.41 in /  995.8 hPa NW 10.4 mph /  16.7 km/h 4.0 mph /  6.4 km/h 72 % 0.00 in /  0 mm
00:19 63.4 °F /  17.4 °C 54.2 °F /  12.3 °C 29.41 in /  995.8 hPa NW 11.5 mph /  18.5 km/h 6.0 mph /  9.7 km/h 72 % 0.00 in /  0 mm
00:24 63.4 °F /  17.4 °C 54.2 °F /  12.3 °C 29.41 in /  995.8 hPa NW 23.0 mph /  37 km/h 16.4 mph /  26.4 km/h 72 % 0.00 in /  0 mm
00:29 63.5 °F /  17.5 °C 53.9 °F /  12.2 °C 29.41 in /  995.8 hPa NW 15.0 mph /  24.1 km/h 8.8 mph /  14.2 km/h 71 % 0.00 in /  0 mm
00:34 63.5 °F /  17.5 °C 53.9 °F /  12.2 °C 29.40 in /  995.5 hPa NNW 11.5 mph /  18.5 km/h 8.5 mph /  13.7 km/h 71 % 0.00 in /  0 mm
00:39 63.3 °F /  17.4 °C 53.7 °F /  12.1 °C 29.41 in /  995.8 hPa NW 16.0 mph /  25.7 km/h 10.4 mph /  16.7 km/h 71 % 0.00 in /  0 mm
00:44 63.2 °F /  17.3 °C 53.6 °F /  12 °C 29.40 in /  995.5 hPa NW 11.5 mph /  18.5 km/h 5.5 mph /  8.9 km/h 71 % 0.00 in /  0 mm
00:49 63.0 °F /  17.2 °C 53.4 °F /  11.9 °C 29.40 in /  995.5 hPa NW 16.1 mph /  25.9 km/h 8.1 mph /  13 km/h 71 % 0.00 in /  0 mm
00:54 63.0 °F /  17.2 °C 53.4 °F /  11.9 °C 29.40 in /  995.5 hPa NW 19.6 mph /  31.5 km/h 8.8 mph /  14.2 km/h 71 % 0.00 in /  0 mm
00:59 62.9 °F /  17.2 °C 53.7 °F /  12.1 °C 29.40 in /  995.5 hPa NW 19.6 mph /  31.5 km/h 13.4 mph /  21.6 km/h 72 % 0.00 in /  0 mm
01:04 62.8 °F /  17.1 °C 53.6 °F /  12 °C 29.39 in /  995.1 hPa NW 11.0 mph /  17.7 km/h 8.9 mph /  14.3 km/h 72 % 0.00 in /  0 mm
01:09 62.5 °F /  16.9 °C 53.3 °F /  11.8 °C 29.39 in /  995.1 hPa NW 12.7 mph /  20.4 km/h 7.3 mph /  11.7 km/h 72 % 0.00 in /  0 mm
01:14 62.4 °F /  16.9 °C 53.6 °F /  12 °C 29.39 in /  995.1 hPa NW 15.0 mph /  24.1 km/h 9.4 mph /  15.1 km/h 73 % 0.00 in /  0 mm
01:19 62.3 °F /  16.8 °C 53.5 °F /  11.9 °C 29.39 in /  995.1 hPa NW 11.5 mph /  18.5 km/h 5.4 mph /  8.7 km/h 73 % 0.00 in /  0 mm
01:24 62.2 °F /  16.8 °C 53.4 °F /  11.9 °C 29.39 in /  995.1 hPa NW 6.9 mph /  11.1 km/h 2.9 mph /  4.7 km/h 73 % 0.00 in /  0 mm
01:29 62.0 °F /  16.7 °C 53.2 °F /  11.8 °C 29.38 in /  994.8 hPa NNW 6.9 mph /  11.1 km/h 6.8 mph /  10.9 km/h 73 % 0.00 in /  0 mm
01:34 61.8 °F /  16.6 °C 53.1 °F /  11.7 °C 29.38 in /  994.8 hPa NNW 6.9 mph /  11.1 km/h 3.0 mph /  4.8 km/h 73 % 0.00 in /  0 mm
01:39 61.6 °F /  16.4 °C 53.2 °F /  11.8 °C 29.38 in /  994.8 hPa NW 12.7 mph /  20.4 km/h 7.1 mph /  11.4 km/h 74 % 0.00 in /  0 mm
01:44 61.5 °F /  16.4 °C 53.1 °F /  11.7 °C 29.37 in /  994.5 hPa NW 8.1 mph /  13 km/h 4.3 mph /  6.9 km/h 74 % 0.00 in /  0 mm
01:49 61.5 °F /  16.4 °C 53.1 °F /  11.7 °C 29.37 in /  994.5 hPa NNW 10.4 mph /  16.7 km/h 5.2 mph /  8.4 km/h 74 % 0.00 in /  0 mm
01:54 61.3 °F /  16.3 °C 52.9 °F /  11.6 °C 29.37 in /  994.5 hPa NNW 6.9 mph /  11.1 km/h 5.8 mph /  9.3 km/h 74 % 0.00 in /  0 mm
01:59 61.3 °F /  16.3 °C 53.3 °F /  11.8 °C 29.37 in /  994.5 hPa NW 11.5 mph /  18.5 km/h 7.6 mph /  12.2 km/h 75 % 0.00 in /  0 mm
02:04 61.3 °F /  16.3 °C 53.3 °F /  11.8 °C 29.37 in /  994.5 hPa NW 13.8 mph /  22.2 km/h 5.6 mph /  9 km/h 75 % 0.00 in /  0 mm
02:05 63.5 °F /  17.5 °C 54.7 °F /  12.6 °C 29.41 in /  995.8 hPa WNW 7.0 mph /  11.3 km/h 11.0 mph /  17.7 km/h 73 % 0.00 in /  0 mm
02:09 61.3 °F /  16.3 °C 53.3 °F /  11.8 °C 29.36 in /  994.1 hPa NNW 10.0 mph /  16.1 km/h 7.4 mph /  11.9 km/h 75 % 0.00 in /  0 mm
02:10 63.5 °F /  17.5 °C 54.7 °F /  12.6 °C 29.41 in /  995.8 hPa NW 5.0 mph /  8 km/h 11.0 mph /  17.7 km/h 73 % 0.00 in /  0 mm
02:14 61.3 °F /  16.3 °C 53.3 °F /  11.8 °C 29.36 in /  994.1 hPa NNW 10.4 mph /  16.7 km/h 5.5 mph /  8.9 km/h 75 % 0.00 in /  0 mm
02:15 63.5 °F /  17.5 °C 54.3 °F /  12.4 °C 29.41 in /  995.8 hPa NW 8.0 mph /  12.9 km/h 16.0 mph /  25.7 km/h 72 % 0.00 in /  0 mm
02:19 61.4 °F /  16.3 °C 53.4 °F /  11.9 °C 29.36 in /  994.1 hPa NW 12.7 mph /  20.4 km/h 6.7 mph /  10.8 km/h 75 % 0.00 in /  0 mm
02:20 63.5 °F /  17.5 °C 54.3 °F /  12.4 °C 29.41 in /  995.8 hPa NW 6.0 mph /  9.7 km/h 12.0 mph /  19.3 km/h 72 % 0.00 in /  0 mm
02:24 61.3 °F /  16.3 °C 53.3 °F /  11.8 °C 29.35 in /  993.8 hPa North 11.5 mph /  18.5 km/h 7.8 mph /  12.6 km/h 75 % 0.00 in /  0 mm
02:25 63.4 °F /  17.4 °C 54.6 °F /  12.6 °C 29.41 in /  995.8 hPa NW 5.0 mph /  8 km/h 12.0 mph /  19.3 km/h 73 % 0.00 in /  0 mm
02:29 61.1 °F /  16.2 °C 53.5 °F /  11.9 °C 29.35 in /  993.8 hPa North 11.5 mph /  18.5 km/h 6.9 mph /  11.1 km/h 76 % 0.00 in /  0 mm
02:30 63.4 °F /  17.4 °C 53.8 °F /  12.1 °C 29.41 in /  995.8 hPa NW 10.0 mph /  16.1 km/h 23.0 mph /  37 km/h 71 % 0.00 in /  0 mm
02:34 60.9 °F /  16.1 °C 53.6 °F /  12 °C 29.34 in /  993.5 hPa North 9.2 mph /  14.8 km/h 4.7 mph /  7.6 km/h 77 % 0.00 in /  0 mm
02:35 63.5 °F /  17.5 °C 53.9 °F /  12.2 °C 29.40 in /  995.5 hPa NW 14.0 mph /  22.5 km/h 20.0 mph /  32.2 km/h 71 % 0.00 in /  0 mm
02:39 60.7 °F /  15.9 °C 53.8 °F /  12.1 °C 29.34 in /  993.5 hPa North 10.4 mph /  16.7 km/h 7.8 mph /  12.6 km/h 78 % 0.00 in /  0 mm
02:40 63.4 °F /  17.4 °C 53.8 °F /  12.1 °C 29.40 in /  995.5 hPa NW 9.0 mph /  14.5 km/h 14.0 mph /  22.5 km/h 71 % 0.00 in /  0 mm
02:44 60.4 °F /  15.8 °C 53.9 °F /  12.2 °C 29.34 in /  993.5 hPa North 11.5 mph /  18.5 km/h 5.8 mph /  9.3 km/h 79 % 0.00 in /  0 mm
02:45 63.3 °F /  17.4 °C 53.7 °F /  12.1 °C 29.40 in /  995.5 hPa NW 16.0 mph /  25.7 km/h 23.0 mph /  37 km/h 71 % 0.00 in /  0 mm
02:49 60.3 °F /  15.7 °C 54.1 °F /  12.3 °C 29.33 in /  993.1 hPa North 10.0 mph /  16.1 km/h 7.5 mph /  12.1 km/h 80 % 0.00 in /  0 mm
02:50 63.2 °F /  17.3 °C 53.6 °F /  12 °C 29.40 in /  995.5 hPa NW 12.0 mph /  19.3 km/h 18.0 mph /  29 km/h 71 % 0.00 in /  0 mm
02:54 60.1 °F /  15.6 °C 53.9 °F /  12.2 °C 29.33 in /  993.1 hPa NW 12.7 mph /  20.4 km/h 4.5 mph /  7.2 km/h 80 % 0.00 in /  0 mm
02:55 63.0 °F /  17.2 °C 53.4 °F /  11.9 °C 29.40 in /  995.5 hPa NW 10.0 mph /  16.1 km/h 20.0 mph /  32.2 km/h 71 % 0.00 in /  0 mm
02:59 60.0 °F /  15.6 °C 54.2 °F /  12.3 °C 29.33 in /  993.1 hPa North 10.0 mph /  16.1 km/h 3.9 mph /  6.3 km/h 81 % 0.00 in /  0 mm
03:00 63.0 °F /  17.2 °C 53.4 °F /  11.9 °C 29.40 in /  995.5 hPa NW 9.0 mph /  14.5 km/h 19.0 mph /  30.6 km/h 71 % 0.00 in /  0 mm
03:04 60.0 °F /  15.6 °C 54.2 °F /  12.3 °C 29.33 in /  993.1 hPa NNW 11.5 mph /  18.5 km/h 6.6 mph /  10.6 km/h 81 % 0.00 in /  0 mm
03:05 62.9 °F /  17.2 °C 53.7 °F /  12.1 °C 29.40 in /  995.5 hPa NW 9.0 mph /  14.5 km/h 20.0 mph /  32.2 km/h 72 % 0.00 in /  0 mm
03:09 60.1 °F /  15.6 °C 54.2 °F /  12.3 °C 29.33 in /  993.1 hPa NW 9.2 mph /  14.8 km/h 6.5 mph /  10.5 km/h 81 % 0.00 in /  0 mm
03:10 62.7 °F /  17.1 °C 53.5 °F /  11.9 °C 29.39 in /  995.1 hPa NW 9.0 mph /  14.5 km/h 15.0 mph /  24.1 km/h 72 % 0.00 in /  0 mm
03:14 60.3 °F /  15.7 °C 54.4 °F /  12.4 °C 29.33 in /  993.1 hPa WNW 13.8 mph /  22.2 km/h 6.8 mph /  10.9 km/h 81 % 0.00 in /  0 mm
03:15 62.5 °F /  16.9 °C 53.3 °F /  11.8 °C 29.39 in /  995.1 hPa NW 9.0 mph /  14.5 km/h 16.0 mph /  25.7 km/h 72 % 0.00 in /  0 mm
03:19 60.5 °F /  15.8 °C 54.6 °F /  12.6 °C 29.32 in /  992.8 hPa NW 11.5 mph /  18.5 km/h 8.1 mph /  13 km/h 81 % 0.00 in /  0 mm
03:20 62.4 °F /  16.9 °C 53.6 °F /  12 °C 29.39 in /  995.1 hPa NW 7.0 mph /  11.3 km/h 22.0 mph /  35.4 km/h 73 % 0.00 in /  0 mm
03:24 60.7 °F /  15.9 °C 54.5 °F /  12.5 °C 29.32 in /  992.8 hPa NW 11.5 mph /  18.5 km/h 7.6 mph /  12.2 km/h 80 % 0.00 in /  0 mm
03:25 62.2 °F /  16.8 °C 53.4 °F /  11.9 °C 29.39 in /  995.1 hPa WNW 9.0 mph /  14.5 km/h 17.0 mph /  27.4 km/h 73 % 0.00 in /  0 mm
03:29 60.8 °F /  16 °C 54.2 °F /  12.3 °C 29.32 in /  992.8 hPa NW 17.3 mph /  27.8 km/h 10.4 mph /  16.7 km/h 79 % 0.00 in /  0 mm
03:30 62.1 °F /  16.7 °C 53.3 °F /  11.8 °C 29.38 in /  994.8 hPa NW 7.0 mph /  11.3 km/h 14.0 mph /  22.5 km/h 73 % 0.00 in /  0 mm
03:34 60.8 °F /  16 °C 54.2 °F /  12.3 °C 29.32 in /  992.8 hPa NW 15.0 mph /  24.1 km/h 6.2 mph /  10 km/h 79 % 0.00 in /  0 mm
03:35 61.9 °F /  16.6 °C 53.1 °F /  11.7 °C 29.38 in /  994.8 hPa NW 7.0 mph /  11.3 km/h 11.0 mph /  17.7 km/h 73 % 0.00 in /  0 mm
03:39 60.7 °F /  15.9 °C 54.1 °F /  12.3 °C 29.32 in /  992.8 hPa NW 11.5 mph /  18.5 km/h 8.5 mph /  13.7 km/h 79 % 0.00 in /  0 mm
03:40 61.7 °F /  16.5 °C 53.3 °F /  11.8 °C 29.38 in /  994.8 hPa NNW 7.0 mph /  11.3 km/h 11.0 mph /  17.7 km/h 74 % 0.00 in /  0 mm
03:44 60.7 °F /  15.9 °C 54.1 °F /  12.3 °C 29.31 in /  992.4 hPa NW 15.0 mph /  24.1 km/h 10.2 mph /  16.4 km/h 79 % 0.00 in /  0 mm
03:45 61.6 °F /  16.4 °C 53.2 °F /  11.8 °C 29.38 in /  994.8 hPa NW 3.0 mph /  4.8 km/h 13.0 mph /  20.9 km/h 74 % 0.00 in /  0 mm
03:49 60.6 °F /  15.9 °C 54.0 °F /  12.2 °C 29.31 in /  992.4 hPa NW 16.1 mph /  25.9 km/h 8.2 mph /  13.2 km/h 79 % 0.00 in /  0 mm
03:50 61.5 °F /  16.4 °C 53.1 °F /  11.7 °C 29.37 in /  994.5 hPa NW 5.0 mph /  8 km/h 10.0 mph /  16.1 km/h 74 % 0.00 in /  0 mm
03:54 60.5 °F /  15.8 °C 54.0 °F /  12.2 °C 29.31 in /  992.4 hPa NNW 16.1 mph /  25.9 km/h 12.1 mph /  19.5 km/h 79 % 0.00 in /  0 mm
03:55 61.5 °F /  16.4 °C 53.1 °F /  11.7 °C 29.37 in /  994.5 hPa NW 5.0 mph /  8 km/h 12.0 mph /  19.3 km/h 74 % 0.00 in /  0 mm
03:59 60.5 °F /  15.8 °C 54.0 °F /  12.2 °C 29.30 in /  992.1 hPa NW 16.1 mph /  25.9 km/h 13.4 mph /  21.6 km/h 79 % 0.00 in /  0 mm
04:00 61.3 °F /  16.3 °C 52.9 °F /  11.6 °C 29.37 in /  994.5 hPa NW 5.0 mph /  8 km/h 10.0 mph /  16.1 km/h 74 % 0.00 in /  0 mm
04:04 60.6 °F /  15.9 °C 54.0 °F /  12.2 °C 29.30 in /  992.1 hPa North 13.8 mph /  22.2 km/h 12.5 mph /  20.1 km/h 79 % 0.00 in /  0 mm
04:05 61.3 °F /  16.3 °C 53.3 °F /  11.8 °C 29.37 in /  994.5 hPa NW 5.0 mph /  8 km/h 13.0 mph /  20.9 km/h 75 % 0.00 in /  0 mm
04:09 60.7 °F /  15.9 °C 54.1 °F /  12.3 °C 29.30 in /  992.1 hPa NNW 19.6 mph /  31.5 km/h 15.0 mph /  24.1 km/h 79 % 0.00 in /  0 mm
04:10 61.3 °F /  16.3 °C 53.3 °F /  11.8 °C 29.36 in /  994.1 hPa NW 5.0 mph /  8 km/h 14.0 mph /  22.5 km/h 75 % 0.00 in /  0 mm
04:14 60.8 °F /  16 °C 54.2 °F /  12.3 °C 29.30 in /  992.1 hPa NW 17.3 mph /  27.8 km/h 12.4 mph /  20 km/h 79 % 0.00 in /  0 mm
04:15 61.3 °F /  16.3 °C 53.3 °F /  11.8 °C 29.36 in /  994.1 hPa NW 9.0 mph /  14.5 km/h 15.0 mph /  24.1 km/h 75 % 0.00 in /  0 mm
04:19 60.7 °F /  15.9 °C 54.1 °F /  12.3 °C 29.30 in /  992.1 hPa NNW 15.0 mph /  24.1 km/h 11.6 mph /  18.7 km/h 79 % 0.00 in /  0 mm
04:20 61.3 °F /  16.3 °C 53.3 °F /  11.8 °C 29.36 in /  994.1 hPa NW 7.0 mph /  11.3 km/h 12.0 mph /  19.3 km/h 75 % 0.00 in /  0 mm
04:24 60.7 °F /  15.9 °C 54.1 °F /  12.3 °C 29.30 in /  992.1 hPa NNW 17.3 mph /  27.8 km/h 13.0 mph /  20.9 km/h 79 % 0.00 in /  0 mm
04:25 61.4 °F /  16.3 °C 53.4 °F /  11.9 °C 29.36 in /  994.1 hPa NW 5.0 mph /  8 km/h 14.0 mph /  22.5 km/h 75 % 0.00 in /  0 mm
04:29 60.7 °F /  15.9 °C 54.5 °F /  12.5 °C 29.30 in /  992.1 hPa NNW 13.8 mph /  22.2 km/h 8.4 mph /  13.5 km/h 80 % 0.00 in /  0 mm
04:30 61.2 °F /  16.2 °C 53.2 °F /  11.8 °C 29.35 in /  993.8 hPa NNW 3.0 mph /  4.8 km/h 12.0 mph /  19.3 km/h 75 % 0.00 in /  0 mm
04:34 60.6 °F /  15.9 °C 54.4 °F /  12.4 °C 29.29 in /  991.8 hPa NNW 12.7 mph /  20.4 km/h 10.7 mph /  17.2 km/h 80 % 0.00 in /  0 mm
04:35 61.0 °F /  16.1 °C 53.4 °F /  11.9 °C 29.35 in /  993.8 hPa North 7.0 mph /  11.3 km/h 13.0 mph /  20.9 km/h 76 % 0.00 in /  0 mm
04:39 60.4 °F /  15.8 °C 54.5 °F /  12.5 °C 29.29 in /  991.8 hPa NNW 13.8 mph /  22.2 km/h 6.2 mph /  10 km/h 81 % 0.00 in /  0 mm
04:40 60.8 °F /  16 °C 53.5 °F /  11.9 °C 29.34 in /  993.5 hPa North 7.0 mph /  11.3 km/h 10.0 mph /  16.1 km/h 77 % 0.00 in /  0 mm
04:44 60.4 °F /  15.8 °C 54.5 °F /  12.5 °C 29.29 in /  991.8 hPa NNW 11.5 mph /  18.5 km/h 9.8 mph /  15.8 km/h 81 % 0.00 in /  0 mm
04:45 60.6 °F /  15.9 °C 53.7 °F /  12.1 °C 29.34 in /  993.5 hPa North 5.0 mph /  8 km/h 11.0 mph /  17.7 km/h 78 % 0.00 in /  0 mm
04:49 60.3 °F /  15.7 °C 54.4 °F /  12.4 °C 29.29 in /  991.8 hPa NNW 17.3 mph /  27.8 km/h 11.6 mph /  18.7 km/h 81 % 0.00 in /  0 mm
04:50 60.4 °F /  15.8 °C 53.9 °F /  12.2 °C 29.34 in /  993.5 hPa North 9.0 mph /  14.5 km/h 11.0 mph /  17.7 km/h 79 % 0.00 in /  0 mm
04:54 60.3 °F /  15.7 °C 54.4 °F /  12.4 °C 29.30 in /  992.1 hPa NNW 19.6 mph /  31.5 km/h 11.9 mph /  19.2 km/h 81 % 0.00 in /  0 mm
04:55 60.2 °F /  15.7 °C 54.0 °F /  12.2 °C 29.33 in /  993.1 hPa North 3.0 mph /  4.8 km/h 11.0 mph /  17.7 km/h 80 % 0.00 in /  0 mm
04:59 60.3 °F /  15.7 °C 54.4 °F /  12.4 °C 29.29 in /  991.8 hPa NW 12.7 mph /  20.4 km/h 8.4 mph /  13.5 km/h 81 % 0.00 in /  0 mm
05:00 60.1 °F /  15.6 °C 53.9 °F /  12.2 °C 29.33 in /  993.1 hPa NNW 6.0 mph /  9.7 km/h 13.0 mph /  20.9 km/h 80 % 0.00 in /  0 mm
05:04 60.3 °F /  15.7 °C 54.4 °F /  12.4 °C 29.29 in /  991.8 hPa North 13.8 mph /  22.2 km/h 10.7 mph /  17.2 km/h 81 % 0.00 in /  0 mm
05:05 60.0 °F /  15.6 °C 54.2 °F /  12.3 °C 29.33 in /  993.1 hPa NNW 5.0 mph /  8 km/h 10.0 mph /  16.1 km/h 81 % 0.00 in /  0 mm
05:09 60.3 °F /  15.7 °C 54.4 °F /  12.4 °C 29.29 in /  991.8 hPa NNW 13.8 mph /  22.2 km/h 6.4 mph /  10.3 km/h 81 % 0.00 in /  0 mm
05:10 60.0 °F /  15.6 °C 54.2 °F /  12.3 °C 29.33 in /  993.1 hPa NNW 6.0 mph /  9.7 km/h 15.0 mph /  24.1 km/h 81 % 0.00 in /  0 mm
05:14 60.2 °F /  15.7 °C 54.3 °F /  12.4 °C 29.29 in /  991.8 hPa NNW 11.5 mph /  18.5 km/h 9.4 mph /  15.1 km/h 81 % 0.00 in /  0 mm
05:15 60.2 °F /  15.7 °C 54.3 °F /  12.4 °C 29.33 in /  993.1 hPa NW 7.0 mph /  11.3 km/h 14.0 mph /  22.5 km/h 81 % 0.00 in /  0 mm
05:19 60.2 °F /  15.7 °C 54.3 °F /  12.4 °C 29.29 in /  991.8 hPa NW 15.0 mph /  24.1 km/h 12.3 mph /  19.8 km/h 81 % 0.00 in /  0 mm
05:20 60.4 °F /  15.8 °C 54.5 °F /  12.5 °C 29.33 in /  993.1 hPa NW 9.0 mph /  14.5 km/h 15.0 mph /  24.1 km/h 81 % 0.00 in /  0 mm
05:24 60.6 °F /  15.9 °C 54.0 °F /  12.2 °C 29.29 in /  991.8 hPa NW 16.1 mph /  25.9 km/h 9.3 mph /  15 km/h 79 % 0.00 in /  0 mm
05:25 60.6 °F /  15.9 °C 54.4 °F /  12.4 °C 29.33 in /  993.1 hPa NW 10.0 mph /  16.1 km/h 16.0 mph /  25.7 km/h 80 % 0.00 in /  0 mm
05:29 60.9 °F /  16.1 °C 54.3 °F /  12.4 °C 29.29 in /  991.8 hPa NW 11.5 mph /  18.5 km/h 7.5 mph /  12.1 km/h 79 % 0.00 in /  0 mm
05:30 60.7 °F /  15.9 °C 54.5 °F /  12.5 °C 29.32 in /  992.8 hPa NW 12.0 mph /  19.3 km/h 20.0 mph /  32.2 km/h 80 % 0.00 in /  0 mm
05:34 60.8 °F /  16 °C 54.2 °F /  12.3 °C 29.29 in /  991.8 hPa NNW 15.0 mph /  24.1 km/h 5.8 mph /  9.3 km/h 79 % 0.00 in /  0 mm
05:35 60.8 °F /  16 °C 54.2 °F /  12.3 °C 29.32 in /  992.8 hPa NW 6.0 mph /  9.7 km/h 17.0 mph /  27.4 km/h 79 % 0.00 in /  0 mm
05:39 60.9 °F /  16.1 °C 54.3 °F /  12.4 °C 29.29 in /  991.8 hPa WNW 15.0 mph /  24.1 km/h 9.7 mph /  15.6 km/h 79 % 0.00 in /  0 mm
05:40 60.7 °F /  15.9 °C 54.1 °F /  12.3 °C 29.32 in /  992.8 hPa NW 10.0 mph /  16.1 km/h 15.0 mph /  24.1 km/h 79 % 0.00 in /  0 mm
05:44 61.3 °F /  16.3 °C 54.0 °F /  12.2 °C 29.29 in /  991.8 hPa NW 18.4 mph /  29.6 km/h 10.0 mph /  16.1 km/h 77 % 0.00 in /  0 mm
05:45 60.7 °F /  15.9 °C 54.1 °F /  12.3 °C 29.32 in /  992.8 hPa NW 10.0 mph /  16.1 km/h 16.0 mph /  25.7 km/h 79 % 0.00 in /  0 mm
05:49 61.5 °F /  16.4 °C 54.2 °F /  12.3 °C 29.29 in /  991.8 hPa NNW 13.8 mph /  22.2 km/h 10.8 mph /  17.4 km/h 77 % 0.00 in /  0 mm
05:50 60.7 °F /  15.9 °C 54.1 °F /  12.3 °C 29.31 in /  992.4 hPa NW 12.0 mph /  19.3 km/h 19.0 mph /  30.6 km/h 79 % 0.00 in /  0 mm
05:54 61.5 °F /  16.4 °C 53.9 °F /  12.2 °C 29.29 in /  991.8 hPa NW 16.1 mph /  25.9 km/h 9.0 mph /  14.5 km/h 76 % 0.00 in /  0 mm
05:55 60.6 °F /  15.9 °C 54.0 °F /  12.2 °C 29.31 in /  992.4 hPa NW 12.0 mph /  19.3 km/h 16.0 mph /  25.7 km/h 79 % 0.00 in /  0 mm
05:59 61.5 °F /  16.4 °C 53.9 °F /  12.2 °C 29.29 in /  991.8 hPa NNW 15.0 mph /  24.1 km/h 12.5 mph /  20.1 km/h 76 % 0.00 in /  0 mm
06:00 60.5 °F /  15.8 °C 54.0 °F /  12.2 °C 29.31 in /  992.4 hPa NW 7.0 mph /  11.3 km/h 18.0 mph /  29 km/h 79 % 0.00 in /  0 mm
06:04 61.5 °F /  16.4 °C 54.2 °F /  12.3 °C 29.29 in /  991.8 hPa NW 12.7 mph /  20.4 km/h 8.2 mph /  13.2 km/h 77 % 0.00 in /  0 mm
06:05 60.5 °F /  15.8 °C 54.0 °F /  12.2 °C 29.30 in /  992.1 hPa NW 14.0 mph /  22.5 km/h 19.0 mph /  30.6 km/h 79 % 0.00 in /  0 mm
06:09 61.4 °F /  16.3 °C 54.1 °F /  12.3 °C 29.29 in /  991.8 hPa NW 17.3 mph /  27.8 km/h 15.1 mph /  24.3 km/h 77 % 0.00 in /  0 mm
06:10 60.6 °F /  15.9 °C 54.0 °F /  12.2 °C 29.31 in /  992.4 hPa NW 13.0 mph /  20.9 km/h 22.0 mph /  35.4 km/h 79 % 0.00 in /  0 mm
06:14 61.4 °F /  16.3 °C 54.5 °F /  12.5 °C 29.28 in /  991.4 hPa NNW 11.5 mph /  18.5 km/h 8.3 mph /  13.4 km/h 78 % 0.00 in /  0 mm
06:15 60.7 °F /  15.9 °C 54.1 °F /  12.3 °C 29.30 in /  992.1 hPa NW 13.0 mph /  20.9 km/h 21.0 mph /  33.8 km/h 79 % 0.00 in /  0 mm
06:19 61.1 °F /  16.2 °C 54.5 °F /  12.5 °C 29.29 in /  991.8 hPa NW 15.0 mph /  24.1 km/h 10.5 mph /  16.9 km/h 79 % 0.00 in /  0 mm
06:20 60.8 °F /  16 °C 54.2 °F /  12.3 °C 29.30 in /  992.1 hPa NW 12.0 mph /  19.3 km/h 19.0 mph /  30.6 km/h 79 % 0.00 in /  0 mm
06:24 60.7 °F /  15.9 °C 54.8 °F /  12.7 °C 29.29 in /  991.8 hPa NW 16.1 mph /  25.9 km/h 9.5 mph /  15.3 km/h 81 % 0.00 in /  0 mm
06:25 60.7 °F /  15.9 °C 54.1 °F /  12.3 °C 29.30 in /  992.1 hPa NW 12.0 mph /  19.3 km/h 19.0 mph /  30.6 km/h 79 % 0.00 in /  0 mm
06:29 60.1 °F /  15.6 °C 54.9 °F /  12.7 °C 29.29 in /  991.8 hPa North 16.1 mph /  25.9 km/h 8.1 mph /  13 km/h 83 % 0.01 in /  0.25 mm
06:30 60.7 °F /  15.9 °C 54.5 °F /  12.5 °C 29.30 in /  992.1 hPa NNW 8.0 mph /  12.9 km/h 19.0 mph /  30.6 km/h 80 % 0.00 in /  0 mm
06:34 59.5 °F /  15.3 °C 55.0 °F /  12.8 °C 29.30 in /  992.1 hPa NW 11.5 mph /  18.5 km/h 8.8 mph /  14.2 km/h 85 % 0.02 in /  0.51 mm
06:35 60.6 °F /  15.9 °C 54.4 °F /  12.4 °C 29.30 in /  992.1 hPa NNW 8.0 mph /  12.9 km/h 15.0 mph /  24.1 km/h 80 % 0.00 in /  0 mm
06:39 59.1 °F /  15.1 °C 55.2 °F /  12.9 °C 29.29 in /  991.8 hPa NW 5.8 mph /  9.3 km/h 6.6 mph /  10.6 km/h 87 % 0.04 in /  1.02 mm
06:40 60.5 °F /  15.8 °C 54.3 °F /  12.4 °C 29.29 in /  991.8 hPa NNW 12.0 mph /  19.3 km/h 17.0 mph /  27.4 km/h 80 % 0.00 in /  0 mm
06:44 58.8 °F /  14.9 °C 55.3 °F /  12.9 °C 29.30 in /  992.1 hPa North 10.4 mph /  16.7 km/h 8.9 mph /  14.3 km/h 88 % 0.04 in /  1.02 mm
06:45 60.4 °F /  15.8 °C 54.5 °F /  12.5 °C 29.29 in /  991.8 hPa NNW 10.0 mph /  16.1 km/h 15.0 mph /  24.1 km/h 81 % 0.00 in /  0 mm
06:49 58.8 °F /  14.9 °C 55.6 °F /  13.1 °C 29.30 in /  992.1 hPa NW 8.1 mph /  13 km/h 5.6 mph /  9 km/h 89 % 0.04 in /  1.02 mm
06:50 60.4 °F /  15.8 °C 54.5 °F /  12.5 °C 29.29 in /  991.8 hPa NNW 12.0 mph /  19.3 km/h 19.0 mph /  30.6 km/h 81 % 0.00 in /  0 mm
06:54 58.8 °F /  14.9 °C 55.6 °F /  13.1 °C 29.30 in /  992.1 hPa NW 11.5 mph /  18.5 km/h 8.4 mph /  13.5 km/h 89 % 0.04 in /  1.02 mm
06:55 60.3 °F /  15.7 °C 54.4 °F /  12.4 °C 29.29 in /  991.8 hPa NNW 8.0 mph /  12.9 km/h 17.0 mph /  27.4 km/h 81 % 0.00 in /  0 mm
06:59 59.0 °F /  15 °C 54.8 °F /  12.7 °C 29.30 in /  992.1 hPa WNW 16.1 mph /  25.9 km/h 13.1 mph /  21.1 km/h 86 % 0.04 in /  1.02 mm
07:00 60.3 °F /  15.7 °C 54.4 °F /  12.4 °C 29.30 in /  992.1 hPa NNW 9.0 mph /  14.5 km/h 19.0 mph /  30.6 km/h 81 % 0.00 in /  0 mm
07:04 59.5 °F /  15.3 °C 54.3 °F /  12.4 °C 29.30 in /  992.1 hPa WNW 19.6 mph /  31.5 km/h 15.4 mph /  24.8 km/h 83 % 0.04 in /  1.02 mm
07:05 60.3 °F /  15.7 °C 54.4 °F /  12.4 °C 29.29 in /  991.8 hPa NW 8.0 mph /  12.9 km/h 14.0 mph /  22.5 km/h 81 % 0.00 in /  0 mm
07:09 59.8 °F /  15.4 °C 54.0 °F /  12.2 °C 29.30 in /  992.1 hPa NW 23.0 mph /  37 km/h 19.1 mph /  30.7 km/h 81 % 0.04 in /  1.02 mm
07:10 60.3 °F /  15.7 °C 54.4 °F /  12.4 °C 29.29 in /  991.8 hPa NNW 9.0 mph /  14.5 km/h 17.0 mph /  27.4 km/h 81 % 0.00 in /  0 mm
07:14 60.1 °F /  15.6 °C 54.2 °F /  12.3 °C 29.30 in /  992.1 hPa NW 11.5 mph /  18.5 km/h 9.4 mph /  15.1 km/h 81 % 0.04 in /  1.02 mm
07:15 60.2 °F /  15.7 °C 54.3 °F /  12.4 °C 29.29 in /  991.8 hPa NNW 8.0 mph /  12.9 km/h 14.0 mph /  22.5 km/h 81 % 0.00 in /  0 mm
07:19 60.1 °F /  15.6 °C 54.2 °F /  12.3 °C 29.30 in /  992.1 hPa NW 15.0 mph /  24.1 km/h 11.5 mph /  18.5 km/h 81 % 0.04 in /  1.02 mm
07:20 60.2 °F /  15.7 °C 54.3 °F /  12.4 °C 29.29 in /  991.8 hPa NNW 9.0 mph /  14.5 km/h 13.0 mph /  20.9 km/h 81 % 0.00 in /  0 mm
07:24 60.1 °F /  15.6 °C 54.2 °F /  12.3 °C 29.30 in /  992.1 hPa NW 11.5 mph /  18.5 km/h 7.5 mph /  12.1 km/h 81 % 0.04 in /  1.02 mm
07:25 60.3 °F /  15.7 °C 54.1 °F /  12.3 °C 29.29 in /  991.8 hPa NNW 9.0 mph /  14.5 km/h 18.0 mph /  29 km/h 80 % 0.00 in /  0 mm
07:29 60.3 °F /  15.7 °C 54.1 °F /  12.3 °C 29.30 in /  992.1 hPa NNW 16.1 mph /  25.9 km/h 9.6 mph /  15.4 km/h 80 % 0.03 in /  0.76 mm
07:30 60.7 °F /  15.9 °C 54.1 °F /  12.3 °C 29.29 in /  991.8 hPa NW 10.0 mph /  16.1 km/h 17.0 mph /  27.4 km/h 79 % 0.00 in /  0 mm
07:34 60.5 °F /  15.8 °C 53.6 °F /  12 °C 29.30 in /  992.1 hPa NW 19.6 mph /  31.5 km/h 7.3 mph /  11.7 km/h 78 % 0.02 in /  0.51 mm
07:35 60.9 °F /  16.1 °C 54.3 °F /  12.4 °C 29.29 in /  991.8 hPa NW 6.0 mph /  9.7 km/h 14.0 mph /  22.5 km/h 79 % 0.00 in /  0 mm
07:39 60.7 °F /  15.9 °C 53.4 °F /  11.9 °C 29.30 in /  992.1 hPa NW 19.6 mph /  31.5 km/h 7.5 mph /  12.1 km/h 77 % 0.00 in /  0 mm
07:40 60.8 °F /  16 °C 54.2 °F /  12.3 °C 29.29 in /  991.8 hPa NNW 9.0 mph /  14.5 km/h 16.0 mph /  25.7 km/h 79 % 0.00 in /  0 mm
07:44 60.7 °F /  15.9 °C 53.4 °F /  11.9 °C 29.30 in /  992.1 hPa WNW 12.7 mph /  20.4 km/h 5.3 mph /  8.5 km/h 77 % 0.00 in /  0 mm
07:45 61.0 °F /  16.1 °C 54.1 °F /  12.3 °C 29.29 in /  991.8 hPa NW 13.0 mph /  20.9 km/h 20.0 mph /  32.2 km/h 78 % 0.00 in /  0 mm
07:49 60.7 °F /  15.9 °C 53.1 °F /  11.7 °C 29.30 in /  992.1 hPa WNW 12.0 mph /  19.3 km/h 10.0 mph /  16.1 km/h 76 % 0.00 in /  0 mm
07:50 61.4 °F /  16.3 °C 54.1 °F /  12.3 °C 29.29 in /  991.8 hPa NW 14.0 mph /  22.5 km/h 18.0 mph /  29 km/h 77 % 0.00 in /  0 mm
07:54 60.5 °F /  15.8 °C 52.5 °F /  11.4 °C 29.30 in /  992.1 hPa WNW 9.2 mph /  14.8 km/h 5.9 mph /  9.5 km/h 75 % 0.00 in /  0 mm
07:55 61.5 °F /  16.4 °C 53.9 °F /  12.2 °C 29.29 in /  991.8 hPa NW 12.0 mph /  19.3 km/h 18.0 mph /  29 km/h 76 % 0.00 in /  0 mm
07:59 60.4 °F /  15.8 °C 52.4 °F /  11.3 °C 29.30 in /  992.1 hPa NNW 11.5 mph /  18.5 km/h 8.0 mph /  12.9 km/h 75 % 0.00 in /  0 mm
08:00 61.4 °F /  16.3 °C 53.8 °F /  12.1 °C 29.29 in /  991.8 hPa NW 13.0 mph /  20.9 km/h 19.0 mph /  30.6 km/h 76 % 0.00 in /  0 mm
08:04 60.5 °F /  15.8 °C 52.2 °F /  11.2 °C 29.30 in /  992.1 hPa NNW 14.0 mph /  22.5 km/h 8.6 mph /  13.8 km/h 74 % 0.00 in /  0 mm
08:05 61.5 °F /  16.4 °C 54.2 °F /  12.3 °C 29.29 in /  991.8 hPa NW 12.0 mph /  19.3 km/h 18.0 mph /  29 km/h 77 % 0.00 in /  0 mm
08:09 60.9 °F /  16.1 °C 52.9 °F /  11.6 °C 29.30 in /  992.1 hPa NNW 11.5 mph /  18.5 km/h 6.2 mph /  10 km/h 75 % 0.00 in /  0 mm
08:10 61.5 °F /  16.4 °C 54.2 °F /  12.3 °C 29.29 in /  991.8 hPa NW 10.0 mph /  16.1 km/h 19.0 mph /  30.6 km/h 77 % 0.00 in /  0 mm
08:14 61.3 °F /  16.3 °C 52.9 °F /  11.6 °C 29.30 in /  992.1 hPa NW 14.0 mph /  22.5 km/h 10.1 mph /  16.3 km/h 74 % 0.00 in /  0 mm
08:15 61.4 °F /  16.3 °C 54.1 °F /  12.3 °C 29.29 in /  991.8 hPa NW 10.0 mph /  16.1 km/h 21.0 mph /  33.8 km/h 77 % 0.00 in /  0 mm
08:19 61.1 °F /  16.2 °C 52.4 °F /  11.3 °C 29.30 in /  992.1 hPa NW 15.0 mph /  24.1 km/h 10.2 mph /  16.4 km/h 73 % 0.00 in /  0 mm
08:20 61.3 °F /  16.3 °C 54.4 °F /  12.4 °C 29.29 in /  991.8 hPa NW 10.0 mph /  16.1 km/h 17.0 mph /  27.4 km/h 78 % 0.00 in /  0 mm
08:24 60.9 °F /  16.1 °C 52.6 °F /  11.4 °C 29.30 in /  992.1 hPa NW 12.7 mph /  20.4 km/h 10.8 mph /  17.4 km/h 74 % 0.00 in /  0 mm
08:25 61.0 °F /  16.1 °C 54.8 °F /  12.7 °C 29.29 in /  991.8 hPa NNW 10.0 mph /  16.1 km/h 19.0 mph /  30.6 km/h 80 % 0.00 in /  0 mm
08:29 60.8 °F /  16 °C 52.5 °F /  11.4 °C 29.30 in /  992.1 hPa NW 11.5 mph /  18.5 km/h 7.8 mph /  12.6 km/h 74 % 0.00 in /  0 mm
08:30 60.6 °F /  15.9 °C 54.7 °F /  12.6 °C 29.29 in /  991.8 hPa NNW 9.0 mph /  14.5 km/h 17.0 mph /  27.4 km/h 81 % 0.00 in /  0 mm
08:34 60.9 °F /  16.1 °C 52.6 °F /  11.4 °C 29.30 in /  992.1 hPa North 11.5 mph /  18.5 km/h 6.3 mph /  10.1 km/h 74 % 0.00 in /  0 mm
08:35 59.9 °F /  15.5 °C 55.1 °F /  12.8 °C 29.29 in /  991.8 hPa NNW 6.0 mph /  9.7 km/h 16.0 mph /  25.7 km/h 84 % 0.01 in /  0.25 mm
08:39 61.1 °F /  16.2 °C 52.7 °F /  11.5 °C 29.30 in /  992.1 hPa NNW 11.5 mph /  18.5 km/h 7.1 mph /  11.4 km/h 74 % 0.00 in /  0 mm
08:40 59.4 °F /  15.2 °C 55.2 °F /  12.9 °C 29.29 in /  991.8 hPa NNW 6.0 mph /  9.7 km/h 14.0 mph /  22.5 km/h 86 % 0.02 in /  0.51 mm
08:44 61.1 °F /  16.2 °C 52.7 °F /  11.5 °C 29.30 in /  992.1 hPa NNW 19.6 mph /  31.5 km/h 19.6 mph /  31.5 km/h 74 % 0.00 in /  0 mm
08:45 59.0 °F /  15 °C 55.1 °F /  12.8 °C 29.30 in /  992.1 hPa NW 8.0 mph /  12.9 km/h 14.0 mph /  22.5 km/h 87 % 0.03 in /  0.76 mm
08:49 61.2 °F /  16.2 °C 52.8 °F /  11.6 °C 29.30 in /  992.1 hPa NW 10.4 mph /  16.7 km/h 8.0 mph /  12.9 km/h 74 % 0.00 in /  0 mm
08:50 58.8 °F /  14.9 °C 55.3 °F /  12.9 °C 29.30 in /  992.1 hPa NW 5.0 mph /  8 km/h 14.0 mph /  22.5 km/h 88 % 0.02 in /  0.51 mm
08:54 61.7 °F /  16.5 °C 53.0 °F /  11.7 °C 29.30 in /  992.1 hPa NW 15.0 mph /  24.1 km/h 9.2 mph /  14.8 km/h 73 % 0.00 in /  0 mm
08:55 58.7 °F /  14.8 °C 55.5 °F /  13.1 °C 29.29 in /  991.8 hPa NW 5.0 mph /  8 km/h 8.0 mph /  12.9 km/h 89 % 0.00 in /  0 mm
08:59 61.9 °F /  16.6 °C 52.8 °F /  11.6 °C 29.30 in /  992.1 hPa WNW 13.8 mph /  22.2 km/h 8.8 mph /  14.2 km/h 72 % 0.01 in /  0.25 mm
09:00 58.8 °F /  14.9 °C 55.3 °F /  12.9 °C 29.30 in /  992.1 hPa NW 8.0 mph /  12.9 km/h 20.0 mph /  32.2 km/h 88 % 0.00 in /  0 mm
09:04 62.1 °F /  16.7 °C 53.0 °F /  11.7 °C 29.31 in /  992.4 hPa NW 14.0 mph /  22.5 km/h 8.6 mph /  13.8 km/h 72 % 0.01 in /  0.25 mm
09:05 59.0 °F /  15 °C 54.2 °F /  12.3 °C 29.30 in /  992.1 hPa NW 17.0 mph /  27.4 km/h 22.0 mph /  35.4 km/h 84 % 0.00 in /  0 mm
09:09 61.7 °F /  16.5 °C 53.0 °F /  11.7 °C 29.32 in /  992.8 hPa WNW 19.6 mph /  31.5 km/h 17.2 mph /  27.7 km/h 73 % 0.01 in /  0.25 mm
09:10 59.6 °F /  15.3 °C 54.4 °F /  12.4 °C 29.30 in /  992.1 hPa NW 12.0 mph /  19.3 km/h 22.0 mph /  35.4 km/h 83 % 0.00 in /  0 mm
09:14 61.1 °F /  16.2 °C 53.1 °F /  11.7 °C 29.32 in /  992.8 hPa NW 16.1 mph /  25.9 km/h 10.5 mph /  16.9 km/h 75 % 0.01 in /  0.25 mm
09:15 59.9 °F /  15.5 °C 54.1 °F /  12.3 °C 29.30 in /  992.1 hPa NW 13.0 mph /  20.9 km/h 29.0 mph /  46.7 km/h 81 % 0.00 in /  0 mm
09:19 60.4 °F /  15.8 °C 53.2 °F /  11.8 °C 29.33 in /  993.1 hPa WNW 21.9 mph /  35.2 km/h 11.9 mph /  19.2 km/h 77 % 0.01 in /  0.25 mm
09:20 60.1 °F /  15.6 °C 54.2 °F /  12.3 °C 29.30 in /  992.1 hPa NW 9.0 mph /  14.5 km/h 19.0 mph /  30.6 km/h 81 % 0.00 in /  0 mm
09:24 59.6 °F /  15.3 °C 54.4 °F /  12.4 °C 29.33 in /  993.1 hPa WNW 10.0 mph /  16.1 km/h 7.0 mph /  11.3 km/h 83 % 0.01 in /  0.25 mm
09:25 60.1 °F /  15.6 °C 54.2 °F /  12.3 °C 29.30 in /  992.1 hPa NW 7.0 mph /  11.3 km/h 17.0 mph /  27.4 km/h 81 % 0.00 in /  0 mm
09:29 59.0 °F /  15 °C 53.5 °F /  11.9 °C 29.34 in /  993.5 hPa West 18.4 mph /  29.6 km/h 12.7 mph /  20.4 km/h 82 % 0.01 in /  0.25 mm
09:30 60.1 °F /  15.6 °C 54.2 °F /  12.3 °C 29.30 in /  992.1 hPa NW 13.0 mph /  20.9 km/h 19.0 mph /  30.6 km/h 81 % 0.00 in /  0 mm
09:34 57.6 °F /  14.2 °C 51.5 °F /  10.8 °C 29.36 in /  994.1 hPa SW 19.6 mph /  31.5 km/h 11.0 mph /  17.7 km/h 80 % 0.01 in /  0.25 mm
09:35 60.3 °F /  15.7 °C 53.8 °F /  12.1 °C 29.30 in /  992.1 hPa NW 12.0 mph /  19.3 km/h 21.0 mph /  33.8 km/h 79 % 0.00 in /  0 mm
09:39 54.7 °F /  12.6 °C 49.6 °F /  9.8 °C 29.36 in /  994.1 hPa SW 19.6 mph /  31.5 km/h 11.4 mph /  18.3 km/h 83 % 0.01 in /  0.25 mm
09:40 60.6 °F /  15.9 °C 53.7 °F /  12.1 °C 29.30 in /  992.1 hPa NW 10.0 mph /  16.1 km/h 19.0 mph /  30.6 km/h 78 % 0.00 in /  0 mm
09:44 53.8 °F /  12.1 °C 49.7 °F /  9.8 °C 29.36 in /  994.1 hPa SSW 19.6 mph /  31.5 km/h 10.1 mph /  16.3 km/h 86 % 0.01 in /  0.25 mm
09:45 60.7 °F /  15.9 °C 53.4 °F /  11.9 °C 29.30 in /  992.1 hPa NW 9.0 mph /  14.5 km/h 19.0 mph /  30.6 km/h 77 % 0.00 in /  0 mm
09:49 53.5 °F /  11.9 °C 49.7 °F /  9.8 °C 29.37 in /  994.5 hPa WSW 13.8 mph /  22.2 km/h 4.8 mph /  7.7 km/h 87 % 0.01 in /  0.25 mm
09:50 60.7 °F /  15.9 °C 53.4 °F /  11.9 °C 29.30 in /  992.1 hPa NW 9.0 mph /  14.5 km/h 19.0 mph /  30.6 km/h 77 % 0.00 in /  0 mm
09:54 53.3 °F /  11.8 °C 49.5 °F /  9.7 °C 29.37 in /  994.5 hPa WSW 12.0 mph /  19.3 km/h 11.0 mph /  17.7 km/h 87 % 0.01 in /  0.25 mm
09:55 60.6 °F /  15.9 °C 52.6 °F /  11.4 °C 29.30 in /  992.1 hPa NW 10.0 mph /  16.1 km/h 18.0 mph /  29 km/h 75 % 0.00 in /  0 mm
09:59 53.4 °F /  11.9 °C 49.9 °F /  9.9 °C 29.37 in /  994.5 hPa WSW 10.4 mph /  16.7 km/h 7.1 mph /  11.4 km/h 88 % 0.00 in /  0 mm
10:00 60.5 °F /  15.8 °C 52.5 °F /  11.4 °C 29.30 in /  992.1 hPa WNW 8.0 mph /  12.9 km/h 16.0 mph /  25.7 km/h 75 % 0.00 in /  0 mm
10:04 53.6 °F /  12 °C 50.1 °F /  10.1 °C 29.38 in /  994.8 hPa SSW 15.0 mph /  24.1 km/h 9.8 mph /  15.8 km/h 88 % 0.01 in /  0.25 mm
10:05 60.4 °F /  15.8 °C 52.1 °F /  11.2 °C 29.30 in /  992.1 hPa NW 9.0 mph /  14.5 km/h 14.0 mph /  22.5 km/h 74 % 0.00 in /  0 mm
10:09 53.5 °F /  11.9 °C 50.0 °F /  10 °C 29.38 in /  994.8 hPa SSW 12.7 mph /  20.4 km/h 10.0 mph /  16.1 km/h 88 % 0.01 in /  0.25 mm
10:10 60.6 °F /  15.9 °C 52.3 °F /  11.3 °C 29.30 in /  992.1 hPa NW 6.0 mph /  9.7 km/h 14.0 mph /  22.5 km/h 74 % 0.00 in /  0 mm
10:14 53.3 °F /  11.8 °C 49.8 °F /  9.9 °C 29.39 in /  995.1 hPa SW 15.0 mph /  24.1 km/h 10.1 mph /  16.3 km/h 88 % 0.01 in /  0.25 mm
10:15 61.0 °F /  16.1 °C 53.0 °F /  11.7 °C 29.30 in /  992.1 hPa NW 8.0 mph /  12.9 km/h 13.0 mph /  20.9 km/h 75 % 0.00 in /  0 mm
10:19 52.6 °F /  11.4 °C 49.4 °F /  9.7 °C 29.39 in /  995.1 hPa SSW 15.0 mph /  24.1 km/h 9.3 mph /  15 km/h 89 % 0.01 in /  0.25 mm
10:20 61.2 °F /  16.2 °C 52.5 °F /  11.4 °C 29.30 in /  992.1 hPa NNW 9.0 mph /  14.5 km/h 14.0 mph /  22.5 km/h 73 % 0.00 in /  0 mm
10:24 52.3 °F /  11.3 °C 48.9 °F /  9.4 °C 29.40 in /  995.5 hPa SW 19.6 mph /  31.5 km/h 11.4 mph /  18.3 km/h 88 % 0.01 in /  0.25 mm
10:25 61.1 °F /  16.2 °C 52.4 °F /  11.3 °C 29.30 in /  992.1 hPa NW 8.0 mph /  12.9 km/h 17.0 mph /  27.4 km/h 73 % 0.00 in /  0 mm
10:29 52.0 °F /  11.1 °C 48.9 °F /  9.4 °C 29.40 in /  995.5 hPa SSW 19.6 mph /  31.5 km/h 12.4 mph /  20 km/h 89 % 0.01 in /  0.25 mm
10:30 60.9 °F /  16.1 °C 52.6 °F /  11.4 °C 29.30 in /  992.1 hPa NW 7.0 mph /  11.3 km/h 14.0 mph /  22.5 km/h 74 % 0.00 in /  0 mm
10:34 51.9 °F /  11.1 °C 48.8 °F /  9.3 °C 29.40 in /  995.5 hPa WSW 17.3 mph /  27.8 km/h 9.2 mph /  14.8 km/h 89 % 0.01 in /  0.25 mm
10:35 60.8 °F /  16 °C 52.5 °F /  11.4 °C 29.30 in /  992.1 hPa NW 7.0 mph /  11.3 km/h 12.0 mph /  19.3 km/h 74 % 0.00 in /  0 mm
10:39 51.9 °F /  11.1 °C 48.5 °F /  9.2 °C 29.40 in /  995.5 hPa SW 19.6 mph /  31.5 km/h 13.8 mph /  22.2 km/h 88 % 0.01 in /  0.25 mm
10:40 60.9 °F /  16.1 °C 52.6 °F /  11.4 °C 29.30 in /  992.1 hPa NW 9.0 mph /  14.5 km/h 17.0 mph /  27.4 km/h 74 % 0.00 in /  0 mm
10:44 52.7 °F /  11.5 °C 48.6 °F /  9.2 °C 29.40 in /  995.5 hPa WSW 24.2 mph /  38.9 km/h 17.8 mph /  28.6 km/h 86 % 0.01 in /  0.25 mm
10:45 61.1 °F /  16.2 °C 52.7 °F /  11.5 °C 29.30 in /  992.1 hPa NW 12.0 mph /  19.3 km/h 19.0 mph /  30.6 km/h 74 % 0.00 in /  0 mm
10:49 54.0 °F /  12.2 °C 49.0 °F /  9.4 °C 29.41 in /  995.8 hPa SW 19.6 mph /  31.5 km/h 12.3 mph /  19.8 km/h 83 % 0.01 in /  0.25 mm
10:50 61.1 °F /  16.2 °C 52.7 °F /  11.5 °C 29.30 in /  992.1 hPa NW 9.0 mph /  14.5 km/h 19.0 mph /  30.6 km/h 74 % 0.00 in /  0 mm
10:54 54.1 °F /  12.3 °C 48.1 °F /  8.9 °C 29.41 in /  995.8 hPa SW 19.6 mph /  31.5 km/h 8.1 mph /  13 km/h 80 % 0.01 in /  0.25 mm
10:55 61.3 °F /  16.3 °C 52.9 °F /  11.6 °C 29.30 in /  992.1 hPa NW 7.0 mph /  11.3 km/h 12.0 mph /  19.3 km/h 74 % 0.00 in /  0 mm
10:59 53.7 °F /  12.1 °C 48.0 °F /  8.9 °C 29.41 in /  995.8 hPa WSW 15.0 mph /  24.1 km/h 10.8 mph /  17.4 km/h 81 % 0.01 in /  0.25 mm
11:00 61.8 °F /  16.6 °C 53.1 °F /  11.7 °C 29.30 in /  992.1 hPa NNW 12.0 mph /  19.3 km/h 18.0 mph /  29 km/h 73 % 0.01 in /  0.25 mm
11:04 53.4 °F /  11.9 °C 48.4 °F /  9.1 °C 29.42 in /  996.2 hPa West 18.0 mph /  29 km/h 13.2 mph /  21.2 km/h 83 % 0.00 in /  0 mm
11:05 62.0 °F /  16.7 °C 52.9 °F /  11.6 °C 29.31 in /  992.4 hPa NW 12.0 mph /  19.3 km/h 22.0 mph /  35.4 km/h 72 % 0.01 in /  0.25 mm
11:09 52.9 °F /  11.6 °C 47.9 °F /  8.8 °C 29.42 in /  996.2 hPa SW 15.0 mph /  24.1 km/h 10.0 mph /  16.1 km/h 83 % 0.00 in /  0 mm
11:10 62.1 °F /  16.7 °C 53.0 °F /  11.7 °C 29.31 in /  992.4 hPa NW 7.0 mph /  11.3 km/h 14.0 mph /  22.5 km/h 72 % 0.00 in /  0 mm
11:14 53.0 °F /  11.7 °C 47.7 °F /  8.7 °C 29.42 in /  996.2 hPa WSW 18.4 mph /  29.6 km/h 15.1 mph /  24.3 km/h 82 % 0.00 in /  0 mm
11:15 61.5 °F /  16.4 °C 52.8 °F /  11.6 °C 29.32 in /  992.8 hPa NW 12.0 mph /  19.3 km/h 25.0 mph /  40.2 km/h 73 % 0.00 in /  0 mm
11:19 53.2 °F /  11.8 °C 47.5 °F /  8.6 °C 29.42 in /  996.2 hPa WSW 16.1 mph /  25.9 km/h 11.1 mph /  17.9 km/h 81 % 0.00 in /  0 mm
11:20 60.9 °F /  16.1 °C 53.3 °F /  11.8 °C 29.32 in /  992.8 hPa WNW 10.0 mph /  16.1 km/h 17.0 mph /  27.4 km/h 76 % 0.00 in /  0 mm
11:24 53.2 °F /  11.8 °C 47.2 °F /  8.4 °C 29.43 in /  996.5 hPa SW 18.4 mph /  29.6 km/h 11.6 mph /  18.7 km/h 80 % 0.00 in /  0 mm
11:25 60.2 °F /  15.7 °C 53.3 °F /  11.8 °C 29.33 in /  993.1 hPa WNW 12.0 mph /  19.3 km/h 22.0 mph /  35.4 km/h 78 % 0.00 in /  0 mm
11:29 53.3 °F /  11.8 °C 47.6 °F /  8.7 °C 29.43 in /  996.5 hPa WSW 13.8 mph /  22.2 km/h 9.3 mph /  15 km/h 81 % 0.00 in /  0 mm
11:30 59.5 °F /  15.3 °C 53.7 °F /  12.1 °C 29.34 in /  993.5 hPa WNW 5.0 mph /  8 km/h 14.0 mph /  22.5 km/h 81 % 0.00 in /  0 mm
11:34 53.7 °F /  12.1 °C 47.7 °F /  8.7 °C 29.43 in /  996.5 hPa SW 11.5 mph /  18.5 km/h 11.9 mph /  19.2 km/h 80 % 0.00 in /  0 mm
11:35 59.0 °F /  15 °C 53.5 °F /  11.9 °C 29.34 in /  993.5 hPa WNW 12.0 mph /  19.3 km/h 20.0 mph /  32.2 km/h 82 % 0.00 in /  0 mm
11:39 54.6 °F /  12.6 °C 47.2 °F /  8.4 °C 29.43 in /  996.5 hPa SW 13.8 mph /  22.2 km/h 10.4 mph /  16.7 km/h 76 % 0.00 in /  0 mm
11:40 56.5 °F /  13.6 °C 50.1 °F /  10.1 °C 29.36 in /  994.1 hPa WSW 17.0 mph /  27.4 km/h 21.0 mph /  33.8 km/h 79 % 0.00 in /  0 mm
11:44 54.7 °F /  12.6 °C 46.9 °F /  8.3 °C 29.44 in /  996.8 hPa WSW 11.5 mph /  18.5 km/h 7.7 mph /  12.4 km/h 75 % 0.00 in /  0 mm
11:45 54.3 °F /  12.4 °C 49.6 °F /  9.8 °C 29.36 in /  994.1 hPa SW 14.0 mph /  22.5 km/h 21.0 mph /  33.8 km/h 84 % 0.00 in /  0 mm
11:49 54.8 °F /  12.7 °C 46.7 °F /  8.2 °C 29.44 in /  996.8 hPa WSW 16.1 mph /  25.9 km/h 11.9 mph /  19.2 km/h 74 % 0.00 in /  0 mm
11:50 53.6 °F /  12 °C 49.5 °F /  9.7 °C 29.36 in /  994.1 hPa SW 8.0 mph /  12.9 km/h 19.0 mph /  30.6 km/h 86 % 0.00 in /  0 mm
11:54 55.0 °F /  12.8 °C 47.2 °F /  8.4 °C 29.44 in /  996.8 hPa WNW 17.3 mph /  27.8 km/h 11.1 mph /  17.9 km/h 75 % 0.00 in /  0 mm
11:55 53.5 °F /  11.9 °C 49.7 °F /  9.8 °C 29.37 in /  994.5 hPa SW 8.0 mph /  12.9 km/h 16.0 mph /  25.7 km/h 87 % 0.00 in /  0 mm
11:59 55.4 °F /  13 °C 46.5 °F /  8.1 °C 29.44 in /  996.8 hPa West 17.3 mph /  27.8 km/h 16.2 mph /  26.1 km/h 72 % 0.00 in /  0 mm
12:00 53.3 °F /  11.8 °C 49.5 °F /  9.7 °C 29.37 in /  994.5 hPa SW 5.0 mph /  8 km/h 17.0 mph /  27.4 km/h 87 % 0.00 in /  0 mm
12:04 56.3 °F /  13.5 °C 47.0 °F /  8.3 °C 29.44 in /  996.8 hPa West 14.0 mph /  22.5 km/h 10.5 mph /  16.9 km/h 71 % 0.00 in /  0 mm
12:05 53.6 °F /  12 °C 50.1 °F /  10.1 °C 29.37 in /  994.5 hPa SW 7.0 mph /  11.3 km/h 14.0 mph /  22.5 km/h 88 % 0.00 in /  0 mm
12:09 56.3 °F /  13.5 °C 44.7 °F /  7.1 °C 29.44 in /  996.8 hPa West 19.6 mph /  31.5 km/h 15.1 mph /  24.3 km/h 65 % 0.00 in /  0 mm
12:10 53.6 °F /  12 °C 50.1 °F /  10.1 °C 29.37 in /  994.5 hPa SW 12.0 mph /  19.3 km/h 22.0 mph /  35.4 km/h 88 % 0.01 in /  0.25 mm
12:14 56.0 °F /  13.3 °C 44.4 °F /  6.9 °C 29.44 in /  996.8 hPa West 15.0 mph /  24.1 km/h 13.3 mph /  21.4 km/h 65 % 0.00 in /  0 mm
12:15 53.4 °F /  11.9 °C 49.9 °F /  9.9 °C 29.38 in /  994.8 hPa SW 12.0 mph /  19.3 km/h 19.0 mph /  30.6 km/h 88 % 0.01 in /  0.25 mm
12:19 55.9 °F /  13.3 °C 44.3 °F /  6.8 °C 29.44 in /  996.8 hPa West 12.7 mph /  20.4 km/h 5.3 mph /  8.5 km/h 65 % 0.00 in /  0 mm
12:20 53.0 °F /  11.7 °C 49.5 °F /  9.7 °C 29.39 in /  995.1 hPa SW 13.0 mph /  20.9 km/h 17.0 mph /  27.4 km/h 88 % 0.00 in /  0 mm
12:24 56.1 °F /  13.4 °C 44.5 °F /  6.9 °C 29.44 in /  996.8 hPa West 15.0 mph /  24.1 km/h 8.0 mph /  12.9 km/h 65 % 0.00 in /  0 mm
12:25 52.6 °F /  11.4 °C 49.4 °F /  9.7 °C 29.39 in /  995.1 hPa SW 10.0 mph /  16.1 km/h 18.0 mph /  29 km/h 89 % 0.00 in /  0 mm
12:29 55.8 °F /  13.2 °C 44.6 °F /  7 °C 29.44 in /  996.8 hPa West 10.4 mph /  16.7 km/h 7.5 mph /  12.1 km/h 66 % 0.00 in /  0 mm
12:30 52.2 °F /  11.2 °C 48.8 °F /  9.3 °C 29.40 in /  995.5 hPa SW 12.0 mph /  19.3 km/h 20.0 mph /  32.2 km/h 88 % 0.00 in /  0 mm
12:34 55.7 °F /  13.2 °C 43.7 °F /  6.5 °C 29.45 in /  997.2 hPa West 15.0 mph /  24.1 km/h 9.5 mph /  15.3 km/h 64 % 0.00 in /  0 mm
12:35 52.0 °F /  11.1 °C 48.9 °F /  9.4 °C 29.40 in /  995.5 hPa SW 14.0 mph /  22.5 km/h 21.0 mph /  33.8 km/h 89 % 0.00 in /  0 mm
12:39 55.9 °F /  13.3 °C 44.7 °F /  7.1 °C 29.44 in /  996.8 hPa West 9.2 mph /  14.8 km/h 1.7 mph /  2.7 km/h 66 % 0.00 in /  0 mm
12:40 51.8 °F /  11 °C 48.7 °F /  9.3 °C 29.40 in /  995.5 hPa SW 12.0 mph /  19.3 km/h 19.0 mph /  30.6 km/h 89 % 0.00 in /  0 mm
12:44 56.2 °F /  13.4 °C 44.6 °F /  7 °C 29.44 in /  996.8 hPa SW 9.2 mph /  14.8 km/h 7.0 mph /  11.3 km/h 65 % 0.00 in /  0 mm
12:45 52.1 °F /  11.2 °C 48.7 °F /  9.3 °C 29.41 in /  995.8 hPa WSW 14.0 mph /  22.5 km/h 19.0 mph /  30.6 km/h 88 % 0.00 in /  0 mm
12:49 56.3 °F /  13.5 °C 44.7 °F /  7.1 °C 29.44 in /  996.8 hPa West 12.7 mph /  20.4 km/h 7.6 mph /  12.2 km/h 65 % 0.00 in /  0 mm
12:50 53.1 °F /  11.7 °C 48.7 °F /  9.3 °C 29.40 in /  995.5 hPa WSW 15.0 mph /  24.1 km/h 24.0 mph /  38.6 km/h 85 % 0.00 in /  0 mm
12:54 56.9 °F /  13.8 °C 44.8 °F /  7.1 °C 29.44 in /  996.8 hPa WSW 11.5 mph /  18.5 km/h 9.2 mph /  14.8 km/h 64 % 0.00 in /  0 mm
12:55 54.2 °F /  12.3 °C 48.8 °F /  9.3 °C 29.41 in /  995.8 hPa WSW 13.0 mph /  20.9 km/h 21.0 mph /  33.8 km/h 82 % 0.00 in /  0 mm
12:59 56.9 °F /  13.8 °C 45.3 °F /  7.4 °C 29.44 in /  996.8 hPa West 13.8 mph /  22.2 km/h 6.5 mph /  10.5 km/h 65 % 0.00 in /  0 mm
13:00 54.0 °F /  12.2 °C 48.0 °F /  8.9 °C 29.41 in /  995.8 hPa WSW 16.0 mph /  25.7 km/h 24.0 mph /  38.6 km/h 80 % 0.00 in /  0 mm
13:04 56.1 °F /  13.4 °C 45.3 °F /  7.4 °C 29.45 in /  997.2 hPa WSW 15.0 mph /  24.1 km/h 9.7 mph /  15.6 km/h 67 % 0.00 in /  0 mm
13:05 53.6 °F /  12 °C 47.9 °F /  8.8 °C 29.41 in /  995.8 hPa WSW 12.0 mph /  19.3 km/h 21.0 mph /  33.8 km/h 81 % 0.00 in /  0 mm
13:09 56.2 °F /  13.4 °C 45.8 °F /  7.7 °C 29.45 in /  997.2 hPa WSW 9.2 mph /  14.8 km/h 8.5 mph /  13.7 km/h 68 % 0.00 in /  0 mm
13:10 53.3 °F /  11.8 °C 48.3 °F /  9.1 °C 29.42 in /  996.2 hPa WSW 14.0 mph /  22.5 km/h 22.0 mph /  35.4 km/h 83 % 0.00 in /  0 mm
13:14 55.8 °F /  13.2 °C 45.4 °F /  7.4 °C 29.45 in /  997.2 hPa SW 11.5 mph /  18.5 km/h 8.1 mph /  13 km/h 68 % 0.00 in /  0 mm
13:15 52.9 °F /  11.6 °C 47.9 °F /  8.8 °C 29.42 in /  996.2 hPa WSW 13.0 mph /  20.9 km/h 24.0 mph /  38.6 km/h 83 % 0.00 in /  0 mm
13:19 55.6 °F /  13.1 °C 45.6 °F /  7.6 °C 29.45 in /  997.2 hPa SW 6.9 mph /  11.1 km/h 5.6 mph /  9 km/h 69 % 0.00 in /  0 mm
13:20 53.0 °F /  11.7 °C 47.3 °F /  8.5 °C 29.42 in /  996.2 hPa WSW 12.0 mph /  19.3 km/h 21.0 mph /  33.8 km/h 81 % 0.00 in /  0 mm
13:24 55.7 °F /  13.2 °C 45.7 °F /  7.6 °C 29.45 in /  997.2 hPa West 5.8 mph /  9.3 km/h 4.2 mph /  6.8 km/h 69 % 0.00 in /  0 mm
13:25 53.1 °F /  11.7 °C 47.1 °F /  8.4 °C 29.42 in /  996.2 hPa WSW 16.0 mph /  25.7 km/h 23.0 mph /  37 km/h 80 % 0.00 in /  0 mm
13:29 55.7 °F /  13.2 °C 45.3 °F /  7.4 °C 29.45 in /  997.2 hPa West 6.9 mph /  11.1 km/h 5.6 mph /  9 km/h 68 % 0.00 in /  0 mm
13:30 53.2 °F /  11.8 °C 47.5 °F /  8.6 °C 29.43 in /  996.5 hPa WSW 8.0 mph /  12.9 km/h 18.0 mph /  29 km/h 81 % 0.00 in /  0 mm
13:34 56.3 °F /  13.5 °C 45.1 °F /  7.3 °C 29.45 in /  997.2 hPa WSW 10.4 mph /  16.7 km/h 7.2 mph /  11.6 km/h 66 % 0.00 in /  0 mm
13:35 53.3 °F /  11.8 °C 47.3 °F /  8.5 °C 29.43 in /  996.5 hPa WSW 10.0 mph /  16.1 km/h 21.0 mph /  33.8 km/h 80 % 0.00 in /  0 mm
13:39 56.8 °F /  13.8 °C 45.2 °F /  7.3 °C 29.45 in /  997.2 hPa West 9.2 mph /  14.8 km/h 6.2 mph /  10 km/h 65 % 0.00 in /  0 mm
13:40 53.9 °F /  12.2 °C 47.9 °F /  8.8 °C 29.43 in /  996.5 hPa SW 12.0 mph /  19.3 km/h 16.0 mph /  25.7 km/h 80 % 0.00 in /  0 mm
13:44 57.1 °F /  13.9 °C 44.6 °F /  7 °C 29.45 in /  997.2 hPa WNW 10.4 mph /  16.7 km/h 8.0 mph /  12.9 km/h 63 % 0.00 in /  0 mm
13:45 54.7 °F /  12.6 °C 47.3 °F /  8.5 °C 29.43 in /  996.5 hPa SW 10.0 mph /  16.1 km/h 22.0 mph /  35.4 km/h 76 % 0.00 in /  0 mm
13:49 57.3 °F /  14.1 °C 43.5 °F /  6.4 °C 29.45 in /  997.2 hPa North 15.0 mph /  24.1 km/h 11.7 mph /  18.8 km/h 60 % 0.00 in /  0 mm
13:50 54.7 °F /  12.6 °C 46.9 °F /  8.3 °C 29.44 in /  996.8 hPa WSW 7.0 mph /  11.3 km/h 21.0 mph /  33.8 km/h 75 % 0.00 in /  0 mm
13:54 57.3 °F /  14.1 °C 44.4 °F /  6.9 °C 29.45 in /  997.2 hPa West 9.2 mph /  14.8 km/h 8.2 mph /  13.2 km/h 62 % 0.00 in /  0 mm
13:55 54.7 °F /  12.6 °C 46.6 °F /  8.1 °C 29.44 in /  996.8 hPa WSW 10.0 mph /  16.1 km/h 16.0 mph /  25.7 km/h 74 % 0.00 in /  0 mm
13:59 58.1 °F /  14.5 °C 44.3 °F /  6.8 °C 29.45 in /  997.2 hPa WSW 11.5 mph /  18.5 km/h 8.4 mph /  13.5 km/h 60 % 0.00 in /  0 mm
14:00 55.0 °F /  12.8 °C 46.5 °F /  8.1 °C 29.44 in /  996.8 hPa West 12.0 mph /  19.3 km/h 18.0 mph /  29 km/h 73 % 0.00 in /  0 mm
14:04 58.6 °F /  14.8 °C 45.6 °F /  7.6 °C 29.45 in /  997.2 hPa SW 11.5 mph /  18.5 km/h 5.9 mph /  9.5 km/h 62 % 0.00 in /  0 mm
14:05 55.5 °F /  13.1 °C 46.2 °F /  7.9 °C 29.44 in /  996.8 hPa West 9.0 mph /  14.5 km/h 20.0 mph /  32.2 km/h 71 % 0.00 in /  0 mm
14:09 58.4 °F /  14.7 °C 45.4 °F /  7.4 °C 29.45 in /  997.2 hPa SW 9.2 mph /  14.8 km/h 8.7 mph /  14 km/h 62 % 0.00 in /  0 mm
14:10 56.5 °F /  13.6 °C 45.7 °F /  7.6 °C 29.44 in /  996.8 hPa West 13.0 mph /  20.9 km/h 21.0 mph /  33.8 km/h 67 % 0.00 in /  0 mm
14:14 58.0 °F /  14.4 °C 45.0 °F /  7.2 °C 29.45 in /  997.2 hPa SW 16.1 mph /  25.9 km/h 8.5 mph /  13.7 km/h 62 % 0.00 in /  0 mm
14:15 56.2 °F /  13.4 °C 44.6 °F /  7 °C 29.44 in /  996.8 hPa West 12.0 mph /  19.3 km/h 21.0 mph /  33.8 km/h 65 % 0.00 in /  0 mm
14:19 58.0 °F /  14.4 °C 44.6 °F /  7 °C 29.45 in /  997.2 hPa SW 10.4 mph /  16.7 km/h 6.9 mph /  11.1 km/h 61 % 0.00 in /  0 mm
14:20 56.0 °F /  13.3 °C 44.4 °F /  6.9 °C 29.44 in /  996.8 hPa West 12.0 mph /  19.3 km/h 17.0 mph /  27.4 km/h 65 % 0.00 in /  0 mm
14:24 57.9 °F /  14.4 °C 42.8 °F /  6 °C 29.46 in /  997.5 hPa WSW 18.4 mph /  29.6 km/h 12.2 mph /  19.6 km/h 57 % 0.00 in /  0 mm
14:25 56.0 °F /  13.3 °C 44.8 °F /  7.1 °C 29.44 in /  996.8 hPa West 9.0 mph /  14.5 km/h 16.0 mph /  25.7 km/h 66 % 0.00 in /  0 mm
14:29 57.5 °F /  14.2 °C 43.7 °F /  6.5 °C 29.46 in /  997.5 hPa West 11.5 mph /  18.5 km/h 6.8 mph /  10.9 km/h 60 % 0.00 in /  0 mm
14:30 56.0 °F /  13.3 °C 44.0 °F /  6.7 °C 29.44 in /  996.8 hPa West 12.0 mph /  19.3 km/h 16.0 mph /  25.7 km/h 64 % 0.00 in /  0 mm
14:34 58.4 °F /  14.7 °C 43.7 °F /  6.5 °C 29.45 in /  997.2 hPa WSW 13.8 mph /  22.2 km/h 9.3 mph /  15 km/h 58 % 0.00 in /  0 mm
14:35 55.8 °F /  13.2 °C 44.2 °F /  6.8 °C 29.45 in /  997.2 hPa West 9.0 mph /  14.5 km/h 13.0 mph /  20.9 km/h 65 % 0.00 in /  0 mm
14:39 59.4 °F /  15.2 °C 42.3 °F /  5.7 °C 29.45 in /  997.2 hPa WSW 19.6 mph /  31.5 km/h 8.3 mph /  13.4 km/h 53 % 0.00 in /  0 mm
14:40 55.7 °F /  13.2 °C 44.1 °F /  6.7 °C 29.45 in /  997.2 hPa West 5.0 mph /  8 km/h 15.0 mph /  24.1 km/h 65 % 0.00 in /  0 mm
14:44 61.0 °F /  16.1 °C 41.7 °F /  5.4 °C 29.45 in /  997.2 hPa WSW 15.0 mph /  24.1 km/h 9.4 mph /  15.1 km/h 49 % 0.00 in /  0 mm
14:45 56.0 °F /  13.3 °C 44.4 °F /  6.9 °C 29.44 in /  996.8 hPa West 8.0 mph /  12.9 km/h 13.0 mph /  20.9 km/h 65 % 0.00 in /  0 mm
14:49 62.3 °F /  16.8 °C 38.9 °F /  3.8 °C 29.45 in /  997.2 hPa West 21.9 mph /  35.2 km/h 15.2 mph /  24.5 km/h 42 % 0.00 in /  0 mm
14:50 56.2 °F /  13.4 °C 44.6 °F /  7 °C 29.45 in /  997.2 hPa WSW 5.0 mph /  8 km/h 11.0 mph /  17.7 km/h 65 % 0.00 in /  0 mm
14:54 62.6 °F /  17 °C 39.2 °F /  4 °C 29.45 in /  997.2 hPa West 25.3 mph /  40.7 km/h 12.7 mph /  20.4 km/h 42 % 0.00 in /  0 mm
14:55 56.5 °F /  13.6 °C 45.3 °F /  7.4 °C 29.44 in /  996.8 hPa WSW 6.0 mph /  9.7 km/h 13.0 mph /  20.9 km/h 66 % 0.00 in /  0 mm
14:59 60.6 °F /  15.9 °C 39.1 °F /  3.9 °C 29.46 in /  997.5 hPa SW 19.6 mph /  31.5 km/h 17.2 mph /  27.7 km/h 45 % 0.00 in /  0 mm
15:00 56.8 °F /  13.8 °C 45.2 °F /  7.3 °C 29.45 in /  997.2 hPa West 6.0 mph /  9.7 km/h 13.0 mph /  20.9 km/h 65 % 0.00 in /  0 mm
15:04 58.9 °F /  14.9 °C 39.8 °F /  4.3 °C 29.46 in /  997.5 hPa WSW 15.0 mph /  24.1 km/h 11.5 mph /  18.5 km/h 49 % 0.00 in /  0 mm
15:05 56.6 °F /  13.7 °C 45.4 °F /  7.4 °C 29.45 in /  997.2 hPa West 14.0 mph /  22.5 km/h 23.0 mph /  37 km/h 66 % 0.00 in /  0 mm
15:09 58.9 °F /  14.9 °C 40.3 °F /  4.6 °C 29.46 in /  997.5 hPa WSW 13.8 mph /  22.2 km/h 7.8 mph /  12.6 km/h 50 % 0.00 in /  0 mm
15:10 56.0 °F /  13.3 °C 45.6 °F /  7.6 °C 29.45 in /  997.2 hPa WSW 12.0 mph /  19.3 km/h 18.0 mph /  29 km/h 68 % 0.00 in /  0 mm
15:14 59.5 °F /  15.3 °C 38.1 °F /  3.4 °C 29.46 in /  997.5 hPa West 16.1 mph /  25.9 km/h 14.7 mph /  23.7 km/h 45 % 0.00 in /  0 mm
15:15 56.3 °F /  13.5 °C 46.3 °F /  7.9 °C 29.45 in /  997.2 hPa WSW 8.0 mph /  12.9 km/h 13.0 mph /  20.9 km/h 69 % 0.00 in /  0 mm
15:19 60.3 °F /  15.7 °C 38.3 °F /  3.5 °C 29.46 in /  997.5 hPa West 17.3 mph /  27.8 km/h 13.8 mph /  22.2 km/h 44 % 0.00 in /  0 mm
15:20 55.6 °F /  13.1 °C 45.6 °F /  7.6 °C 29.45 in /  997.2 hPa WSW 3.0 mph /  4.8 km/h 12.0 mph /  19.3 km/h 69 % 0.00 in /  0 mm
15:24 60.9 °F /  16.1 °C 38.8 °F /  3.8 °C 29.46 in /  997.5 hPa WSW 14.0 mph /  22.5 km/h 10.7 mph /  17.2 km/h 44 % 0.00 in /  0 mm
15:25 55.6 °F /  13.1 °C 45.6 °F /  7.6 °C 29.45 in /  997.2 hPa SW 6.0 mph /  9.7 km/h 8.0 mph /  12.9 km/h 69 % 0.00 in /  0 mm
15:29 60.4 °F /  15.8 °C 38.4 °F /  3.6 °C 29.47 in /  997.9 hPa West 25.3 mph /  40.7 km/h 16.0 mph /  25.7 km/h 44 % 0.00 in /  0 mm
15:30 55.7 °F /  13.2 °C 45.7 °F /  7.6 °C 29.45 in /  997.2 hPa WSW 6.0 mph /  9.7 km/h 10.0 mph /  16.1 km/h 69 % 0.00 in /  0 mm
15:34 60.5 °F /  15.8 °C 39.6 °F /  4.2 °C 29.47 in /  997.9 hPa SW 26.5 mph /  42.6 km/h 19.7 mph /  31.7 km/h 46 % 0.00 in /  0 mm
15:35 55.9 °F /  13.3 °C 45.5 °F /  7.5 °C 29.45 in /  997.2 hPa West 3.0 mph /  4.8 km/h 10.0 mph /  16.1 km/h 68 % 0.00 in /  0 mm
15:39 58.7 °F /  14.8 °C 41.6 °F /  5.3 °C 29.48 in /  998.2 hPa WSW 18.4 mph /  29.6 km/h 9.6 mph /  15.4 km/h 53 % 0.00 in /  0 mm
15:40 56.4 °F /  13.6 °C 44.8 °F /  7.1 °C 29.45 in /  997.2 hPa West 10.0 mph /  16.1 km/h 15.0 mph /  24.1 km/h 65 % 0.00 in /  0 mm
15:44 57.4 °F /  14.1 °C 41.4 °F /  5.2 °C 29.48 in /  998.2 hPa SW 20.7 mph /  33.3 km/h 15.1 mph /  24.3 km/h 55 % 0.00 in /  0 mm
15:45 56.9 °F /  13.8 °C 44.4 °F /  6.9 °C 29.45 in /  997.2 hPa West 6.0 mph /  9.7 km/h 12.0 mph /  19.3 km/h 63 % 0.00 in /  0 mm
15:49 58.1 °F /  14.5 °C 41.5 °F /  5.3 °C 29.48 in /  998.2 hPa WSW 20.7 mph /  33.3 km/h 12.8 mph /  20.6 km/h 54 % 0.00 in /  0 mm
15:50 57.1 °F /  13.9 °C 43.8 °F /  6.6 °C 29.44 in /  996.8 hPa West 5.0 mph /  8 km/h 11.0 mph /  17.7 km/h 61 % 0.00 in /  0 mm
15:54 59.0 °F /  15 °C 40.9 °F /  4.9 °C 29.47 in /  997.9 hPa SW 16.1 mph /  25.9 km/h 6.2 mph /  10 km/h 51 % 0.00 in /  0 mm
15:55 57.3 °F /  14.1 °C 44.0 °F /  6.7 °C 29.45 in /  997.2 hPa West 12.0 mph /  19.3 km/h 15.0 mph /  24.1 km/h 61 % 0.00 in /  0 mm
15:59 60.3 °F /  15.7 °C 40.5 °F /  4.7 °C 29.47 in /  997.9 hPa WSW 14.0 mph /  22.5 km/h 13.6 mph /  21.9 km/h 48 % 0.00 in /  0 mm
16:00 57.4 °F /  14.1 °C 44.5 °F /  6.9 °C 29.45 in /  997.2 hPa West 7.0 mph /  11.3 km/h 14.0 mph /  22.5 km/h 62 % 0.00 in /  0 mm
16:04 60.4 °F /  15.8 °C 37.8 °F /  3.2 °C 29.48 in /  998.2 hPa WSW 19.6 mph /  31.5 km/h 15.8 mph /  25.4 km/h 43 % 0.00 in /  0 mm
16:05 58.4 °F /  14.7 °C 45.0 °F /  7.2 °C 29.45 in /  997.2 hPa West 6.0 mph /  9.7 km/h 12.0 mph /  19.3 km/h 61 % 0.00 in /  0 mm
16:09 58.6 °F /  14.8 °C 40.0 °F /  4.4 °C 29.49 in /  998.5 hPa WSW 28.8 mph /  46.3 km/h 14.1 mph /  22.7 km/h 50 % 0.00 in /  0 mm
16:10 58.7 °F /  14.8 °C 45.7 °F /  7.6 °C 29.45 in /  997.2 hPa WSW 6.0 mph /  9.7 km/h 13.0 mph /  20.9 km/h 62 % 0.00 in /  0 mm
16:14 55.7 °F /  13.2 °C 42.0 °F /  5.6 °C 29.49 in /  998.5 hPa WNW 19.6 mph /  31.5 km/h 13.0 mph /  20.9 km/h 60 % 0.00 in /  0 mm
16:15 58.3 °F /  14.6 °C 45.3 °F /  7.4 °C 29.45 in /  997.2 hPa SW 10.0 mph /  16.1 km/h 18.0 mph /  29 km/h 62 % 0.00 in /  0 mm
16:19 55.2 °F /  12.9 °C 41.5 °F /  5.3 °C 29.49 in /  998.5 hPa West 24.2 mph /  38.9 km/h 15.0 mph /  24.1 km/h 60 % 0.00 in /  0 mm
16:20 57.9 °F /  14.4 °C 44.5 °F /  6.9 °C 29.45 in /  997.2 hPa SW 9.0 mph /  14.5 km/h 19.0 mph /  30.6 km/h 61 % 0.00 in /  0 mm
16:24 55.7 °F /  13.2 °C 43.7 °F /  6.5 °C 29.49 in /  998.5 hPa West 19.6 mph /  31.5 km/h 12.3 mph /  19.8 km/h 64 % 0.00 in /  0 mm
16:25 58.0 °F /  14.4 °C 43.7 °F /  6.5 °C 29.45 in /  997.2 hPa SW 12.0 mph /  19.3 km/h 15.0 mph /  24.1 km/h 59 % 0.00 in /  0 mm
16:29 57.0 °F /  13.9 °C 43.2 °F /  6.2 °C 29.49 in /  998.5 hPa WNW 12.7 mph /  20.4 km/h 10.9 mph /  17.5 km/h 60 % 0.00 in /  0 mm
16:30 57.6 °F /  14.2 °C 42.9 °F /  6.1 °C 29.46 in /  997.5 hPa WSW 12.0 mph /  19.3 km/h 20.0 mph /  32.2 km/h 58 % 0.00 in /  0 mm
16:34 58.1 °F /  14.5 °C 42.0 °F /  5.6 °C 29.48 in /  998.2 hPa NW 11.5 mph /  18.5 km/h 8.5 mph /  13.7 km/h 55 % 0.00 in /  0 mm
16:35 57.6 °F /  14.2 °C 44.2 °F /  6.8 °C 29.46 in /  997.5 hPa WSW 6.0 mph /  9.7 km/h 12.0 mph /  19.3 km/h 61 % 0.00 in /  0 mm
16:39 59.1 °F /  15.1 °C 41.5 °F /  5.3 °C 29.48 in /  998.2 hPa NW 8.1 mph /  13 km/h 5.8 mph /  9.3 km/h 52 % 0.00 in /  0 mm
16:40 58.7 °F /  14.8 °C 43.5 °F /  6.4 °C 29.45 in /  997.2 hPa WSW 10.0 mph /  16.1 km/h 18.0 mph /  29 km/h 57 % 0.00 in /  0 mm
16:44 60.1 °F /  15.6 °C 42.4 °F /  5.8 °C 29.48 in /  998.2 hPa West 14.0 mph /  22.5 km/h 10.0 mph /  16.1 km/h 52 % 0.00 in /  0 mm
16:45 59.7 °F /  15.4 °C 41.5 °F /  5.3 °C 29.45 in /  997.2 hPa WSW 14.0 mph /  22.5 km/h 19.0 mph /  30.6 km/h 51 % 0.00 in /  0 mm
16:49 60.0 °F /  15.6 °C 40.2 °F /  4.6 °C 29.48 in /  998.2 hPa NW 25.3 mph /  40.7 km/h 12.3 mph /  19.8 km/h 48 % 0.00 in /  0 mm
16:50 61.5 °F /  16.4 °C 39.4 °F /  4.1 °C 29.45 in /  997.2 hPa WSW 14.0 mph /  22.5 km/h 19.0 mph /  30.6 km/h 44 % 0.00 in /  0 mm
16:54 59.7 °F /  15.4 °C 39.4 °F /  4.1 °C 29.49 in /  998.5 hPa West 15.0 mph /  24.1 km/h 12.1 mph /  19.5 km/h 47 % 0.00 in /  0 mm
16:55 62.7 °F /  17.1 °C 40.5 °F /  4.7 °C 29.45 in /  997.2 hPa West 13.0 mph /  20.9 km/h 22.0 mph /  35.4 km/h 44 % 0.00 in /  0 mm
16:59 60.1 °F /  15.6 °C 40.3 °F /  4.6 °C 29.49 in /  998.5 hPa WNW 15.0 mph /  24.1 km/h 10.6 mph /  17.1 km/h 48 % 0.00 in /  0 mm
17:00 62.2 °F /  16.8 °C 38.8 °F /  3.8 °C 29.45 in /  997.2 hPa West 16.0 mph /  25.7 km/h 25.0 mph /  40.2 km/h 42 % 0.00 in /  0 mm
17:04 60.2 °F /  15.7 °C 41.0 °F /  5 °C 29.48 in /  998.2 hPa WSW 15.0 mph /  24.1 km/h 12.1 mph /  19.5 km/h 49 % 0.00 in /  0 mm
17:05 59.9 °F /  15.5 °C 39.1 °F /  3.9 °C 29.46 in /  997.5 hPa WSW 18.0 mph /  29 km/h 23.0 mph /  37 km/h 46 % 0.00 in /  0 mm
17:09 60.1 °F /  15.6 °C 40.9 °F /  4.9 °C 29.48 in /  998.2 hPa West 12.7 mph /  20.4 km/h 10.2 mph /  16.4 km/h 49 % 0.00 in /  0 mm
17:10 58.8 °F /  14.9 °C 39.7 °F /  4.3 °C 29.46 in /  997.5 hPa WSW 10.0 mph /  16.1 km/h 22.0 mph /  35.4 km/h 49 % 0.00 in /  0 mm
17:14 61.6 °F /  16.4 °C 40.6 °F /  4.8 °C 29.49 in /  998.5 hPa WNW 16.1 mph /  25.9 km/h 8.5 mph /  13.7 km/h 46 % 0.00 in /  0 mm
17:15 59.2 °F /  15.1 °C 40.0 °F /  4.4 °C 29.46 in /  997.5 hPa SW 8.0 mph /  12.9 km/h 15.0 mph /  24.1 km/h 49 % 0.00 in /  0 mm
17:19 62.4 °F /  16.9 °C 39.0 °F /  3.9 °C 29.49 in /  998.5 hPa West 19.0 mph /  30.6 km/h 13.6 mph /  21.9 km/h 42 % 0.00 in /  0 mm
17:20 59.5 °F /  15.3 °C 37.0 °F /  2.8 °C 29.46 in /  997.5 hPa WSW 12.0 mph /  19.3 km/h 23.0 mph /  37 km/h 43 % 0.00 in /  0 mm
17:24 62.8 °F /  17.1 °C 38.1 °F /  3.4 °C 29.49 in /  998.5 hPa West 22.0 mph /  35.4 km/h 14.4 mph /  23.2 km/h 40 % 0.00 in /  0 mm
17:25 60.9 °F /  16.1 °C 38.8 °F /  3.8 °C 29.46 in /  997.5 hPa West 14.0 mph /  22.5 km/h 18.0 mph /  29 km/h 44 % 0.00 in /  0 mm
17:29 62.6 °F /  17 °C 38.6 °F /  3.7 °C 29.49 in /  998.5 hPa West 15.0 mph /  24.1 km/h 8.1 mph /  13 km/h 41 % 0.00 in /  0 mm
17:30 60.6 °F /  15.9 °C 39.1 °F /  3.9 °C 29.46 in /  997.5 hPa WSW 17.0 mph /  27.4 km/h 25.0 mph /  40.2 km/h 45 % 0.00 in /  0 mm
17:34 62.5 °F /  16.9 °C 35.9 °F /  2.2 °C 29.50 in /  998.9 hPa West 19.6 mph /  31.5 km/h 14.3 mph /  23 km/h 37 % 0.00 in /  0 mm
17:35 60.6 °F /  15.9 °C 39.1 °F /  3.9 °C 29.47 in /  997.9 hPa WSW 16.0 mph /  25.7 km/h 26.0 mph /  41.8 km/h 45 % 0.00 in /  0 mm
17:39 62.0 °F /  16.7 °C 34.7 °F /  1.5 °C 29.50 in /  998.9 hPa West 20.7 mph /  33.3 km/h 12.7 mph /  20.4 km/h 36 % 0.00 in /  0 mm
17:40 60.2 °F /  15.7 °C 40.4 °F /  4.7 °C 29.47 in /  997.9 hPa WSW 20.0 mph /  32.2 km/h 26.0 mph /  41.8 km/h 48 % 0.00 in /  0 mm
17:44 61.9 °F /  16.6 °C 35.3 °F /  1.8 °C 29.50 in /  998.9 hPa West 19.6 mph /  31.5 km/h 15.3 mph /  24.6 km/h 37 % 0.00 in /  0 mm
17:45 58.5 °F /  14.7 °C 41.9 °F /  5.5 °C 29.47 in /  997.9 hPa WSW 13.0 mph /  20.9 km/h 22.0 mph /  35.4 km/h 54 % 0.00 in /  0 mm
17:49 61.5 °F /  16.4 °C 35.6 °F /  2 °C 29.50 in /  998.9 hPa West 19.6 mph /  31.5 km/h 11.5 mph /  18.5 km/h 38 % 0.00 in /  0 mm
17:50 57.3 °F /  14.1 °C 41.3 °F /  5.2 °C 29.48 in /  998.2 hPa SW 7.0 mph /  11.3 km/h 21.0 mph /  33.8 km/h 55 % 0.00 in /  0 mm
17:54 62.2 °F /  16.8 °C 36.9 °F /  2.7 °C 29.50 in /  998.9 hPa WNW 13.8 mph /  22.2 km/h 10.2 mph /  16.4 km/h 39 % 0.00 in /  0 mm
17:55 58.4 °F /  14.7 °C 40.8 °F /  4.9 °C 29.48 in /  998.2 hPa SW 12.0 mph /  19.3 km/h 21.0 mph /  33.8 km/h 52 % 0.00 in /  0 mm
17:59 62.4 °F /  16.9 °C 36.4 °F /  2.4 °C 29.51 in /  999.2 hPa West 16.1 mph /  25.9 km/h 9.6 mph /  15.4 km/h 38 % 0.00 in /  0 mm
18:00 59.5 °F /  15.3 °C 41.9 °F /  5.5 °C 29.47 in /  997.9 hPa SW 12.0 mph /  19.3 km/h 19.0 mph /  30.6 km/h 52 % 0.00 in /  0 mm
18:04 62.1 °F /  16.7 °C 36.2 °F /  2.3 °C 29.51 in /  999.2 hPa SSW 20.0 mph /  32.2 km/h 10.4 mph /  16.7 km/h 38 % 0.00 in /  0 mm
18:05 60.3 °F /  15.7 °C 39.4 °F /  4.1 °C 29.47 in /  997.9 hPa SW 13.0 mph /  20.9 km/h 18.0 mph /  29 km/h 46 % 0.00 in /  0 mm
18:09 60.9 °F /  16.1 °C 36.4 °F /  2.4 °C 29.51 in /  999.2 hPa SSW 16.1 mph /  25.9 km/h 12.0 mph /  19.3 km/h 40 % 0.00 in /  0 mm
18:10 60.1 °F /  15.6 °C 38.1 °F /  3.4 °C 29.48 in /  998.2 hPa WSW 16.0 mph /  25.7 km/h 22.0 mph /  35.4 km/h 44 % 0.00 in /  0 mm
18:14 60.6 °F /  15.9 °C 36.1 °F /  2.3 °C 29.51 in /  999.2 hPa SSW 21.9 mph /  35.2 km/h 12.8 mph /  20.6 km/h 40 % 0.00 in /  0 mm
18:15 57.9 °F /  14.4 °C 40.4 °F /  4.7 °C 29.49 in /  998.5 hPa WSW 20.0 mph /  32.2 km/h 29.0 mph /  46.7 km/h 52 % 0.00 in /  0 mm
18:19 61.2 °F /  16.2 °C 36.0 °F /  2.2 °C 29.52 in /  999.5 hPa West 17.3 mph /  27.8 km/h 9.3 mph /  15 km/h 39 % 0.00 in /  0 mm
18:20 55.3 °F /  12.9 °C 41.6 °F /  5.3 °C 29.49 in /  998.5 hPa West 16.0 mph /  25.7 km/h 25.0 mph /  40.2 km/h 60 % 0.00 in /  0 mm
18:24 61.7 °F /  16.5 °C 36.5 °F /  2.5 °C 29.52 in /  999.5 hPa West 15.0 mph /  24.1 km/h 10.0 mph /  16.1 km/h 39 % 0.00 in /  0 mm
18:25 55.2 °F /  12.9 °C 41.5 °F /  5.3 °C 29.49 in /  998.5 hPa West 14.0 mph /  22.5 km/h 24.0 mph /  38.6 km/h 60 % 0.00 in /  0 mm
18:29 62.0 °F /  16.7 °C 36.7 °F /  2.6 °C 29.52 in /  999.5 hPa West 13.8 mph /  22.2 km/h 10.7 mph /  17.2 km/h 39 % 0.00 in /  0 mm
18:30 56.0 °F /  13.3 °C 44.4 °F /  6.9 °C 29.49 in /  998.5 hPa West 10.0 mph /  16.1 km/h 19.0 mph /  30.6 km/h 65 % 0.00 in /  0 mm
18:34 61.9 °F /  16.6 °C 36.0 °F /  2.2 °C 29.52 in /  999.5 hPa West 20.7 mph /  33.3 km/h 13.7 mph /  22 km/h 38 % 0.00 in /  0 mm
18:35 57.3 °F /  14.1 °C 43.1 °F /  6.2 °C 29.49 in /  998.5 hPa West 8.0 mph /  12.9 km/h 21.0 mph /  33.8 km/h 59 % 0.00 in /  0 mm
18:39 61.4 °F /  16.3 °C 36.8 °F /  2.7 °C 29.52 in /  999.5 hPa WSW 15.0 mph /  24.1 km/h 8.5 mph /  13.7 km/h 40 % 0.00 in /  0 mm
18:40 58.5 °F /  14.7 °C 42.4 °F /  5.8 °C 29.48 in /  998.2 hPa WNW 6.0 mph /  9.7 km/h 13.0 mph /  20.9 km/h 55 % 0.00 in /  0 mm
18:44 61.3 °F /  16.3 °C 37.4 °F /  3 °C 29.53 in /  999.9 hPa SW 12.7 mph /  20.4 km/h 11.2 mph /  18 km/h 41 % 0.00 in /  0 mm
18:45 59.3 °F /  15.2 °C 42.2 °F /  5.7 °C 29.48 in /  998.2 hPa NW 5.0 mph /  8 km/h 14.0 mph /  22.5 km/h 53 % 0.00 in /  0 mm
18:49 60.9 °F /  16.1 °C 36.4 °F /  2.4 °C 29.54 in /  1000.2 hPa SW 10.4 mph /  16.7 km/h 5.4 mph /  8.7 km/h 40 % 0.00 in /  0 mm
18:50 60.2 °F /  15.7 °C 41.0 °F /  5 °C 29.48 in /  998.2 hPa WNW 8.0 mph /  12.9 km/h 15.0 mph /  24.1 km/h 49 % 0.00 in /  0 mm
18:54 60.3 °F /  15.7 °C 36.5 °F /  2.5 °C 29.54 in /  1000.2 hPa WSW 19.6 mph /  31.5 km/h 10.7 mph /  17.2 km/h 41 % 0.00 in /  0 mm
18:55 59.6 °F /  15.3 °C 40.4 °F /  4.7 °C 29.49 in /  998.5 hPa WNW 14.0 mph /  22.5 km/h 25.0 mph /  40.2 km/h 49 % 0.00 in /  0 mm
18:59 60.2 °F /  15.7 °C 35.8 °F /  2.1 °C 29.54 in /  1000.2 hPa WSW 17.3 mph /  27.8 km/h 12.5 mph /  20.1 km/h 40 % 0.00 in /  0 mm
19:00 59.9 °F /  15.5 °C 40.1 °F /  4.5 °C 29.49 in /  998.5 hPa West 13.0 mph /  20.9 km/h 17.0 mph /  27.4 km/h 48 % 0.00 in /  0 mm
19:04 59.9 °F /  15.5 °C 35.5 °F /  1.9 °C 29.54 in /  1000.2 hPa West 15.0 mph /  24.1 km/h 10.5 mph /  16.9 km/h 40 % 0.00 in /  0 mm
19:05 60.3 °F /  15.7 °C 41.0 °F /  5 °C 29.49 in /  998.5 hPa West 10.0 mph /  16.1 km/h 19.0 mph /  30.6 km/h 49 % 0.00 in /  0 mm
19:09 59.9 °F /  15.5 °C 34.9 °F /  1.6 °C 29.55 in /  1000.6 hPa WSW 21.9 mph /  35.2 km/h 13.4 mph /  21.6 km/h 39 % 0.00 in /  0 mm
19:10 60.0 °F /  15.6 °C 40.8 °F /  4.9 °C 29.49 in /  998.5 hPa West 10.0 mph /  16.1 km/h 18.0 mph /  29 km/h 49 % 0.00 in /  0 mm
19:14 59.5 °F /  15.3 °C 35.8 °F /  2.1 °C 29.55 in /  1000.6 hPa West 16.0 mph /  25.7 km/h 13.1 mph /  21.1 km/h 41 % 0.00 in /  0 mm
19:15 60.4 °F /  15.8 °C 40.1 °F /  4.5 °C 29.48 in /  998.2 hPa West 13.0 mph /  20.9 km/h 18.0 mph /  29 km/h 47 % 0.00 in /  0 mm
19:19 59.0 °F /  15 °C 34.7 °F /  1.5 °C 29.55 in /  1000.6 hPa WSW 15.0 mph /  24.1 km/h 8.5 mph /  13.7 km/h 40 % 0.00 in /  0 mm
19:20 61.9 °F /  16.6 °C 40.3 °F /  4.6 °C 29.49 in /  998.5 hPa WNW 9.0 mph /  14.5 km/h 16.0 mph /  25.7 km/h 45 % 0.00 in /  0 mm
19:24 58.9 °F /  14.9 °C 34.6 °F /  1.4 °C 29.56 in /  1000.9 hPa West 17.3 mph /  27.8 km/h 8.8 mph /  14.2 km/h 40 % 0.00 in /  0 mm
19:25 62.5 °F /  16.9 °C 39.1 °F /  3.9 °C 29.49 in /  998.5 hPa West 12.0 mph /  19.3 km/h 19.0 mph /  30.6 km/h 42 % 0.00 in /  0 mm
19:29 58.8 °F /  14.9 °C 33.9 °F /  1.1 °C 29.56 in /  1000.9 hPa West 18.4 mph /  29.6 km/h 12.4 mph /  20 km/h 39 % 0.00 in /  0 mm
19:30 62.7 °F /  17.1 °C 38.0 °F /  3.3 °C 29.49 in /  998.5 hPa West 12.0 mph /  19.3 km/h 22.0 mph /  35.4 km/h 40 % 0.00 in /  0 mm
19:34 58.5 °F /  14.7 °C 34.2 °F /  1.2 °C 29.56 in /  1000.9 hPa West 15.0 mph /  24.1 km/h 5.4 mph /  8.7 km/h 40 % 0.00 in /  0 mm
19:35 62.7 °F /  17.1 °C 38.0 °F /  3.3 °C 29.50 in /  998.9 hPa West 15.0 mph /  24.1 km/h 21.0 mph /  33.8 km/h 40 % 0.00 in /  0 mm
19:39 57.9 °F /  14.4 °C 34.9 °F /  1.6 °C 29.56 in /  1000.9 hPa SW 9.2 mph /  14.8 km/h 4.3 mph /  6.9 km/h 42 % 0.00 in /  0 mm
19:40 62.4 °F /  16.9 °C 35.1 °F /  1.7 °C 29.50 in /  998.9 hPa West 13.0 mph /  20.9 km/h 20.0 mph /  32.2 km/h 36 % 0.00 in /  0 mm
19:44 57.4 °F /  14.1 °C 35.1 °F /  1.7 °C 29.56 in /  1000.9 hPa West 11.5 mph /  18.5 km/h 7.0 mph /  11.3 km/h 43 % 0.00 in /  0 mm
19:45 62.2 °F /  16.8 °C 35.6 °F /  2 °C 29.50 in /  998.9 hPa West 13.0 mph /  20.9 km/h 22.0 mph /  35.4 km/h 37 % 0.00 in /  0 mm
19:49 57.1 °F /  13.9 °C 35.4 °F /  1.9 °C 29.57 in /  1001.2 hPa WSW 17.3 mph /  27.8 km/h 5.0 mph /  8 km/h 44 % 0.00 in /  0 mm
19:50 61.7 °F /  16.5 °C 35.1 °F /  1.7 °C 29.50 in /  998.9 hPa West 14.0 mph /  22.5 km/h 20.0 mph /  32.2 km/h 37 % 0.00 in /  0 mm
19:54 57.2 °F /  14 °C 36.0 °F /  2.2 °C 29.57 in /  1001.2 hPa WSW 6.9 mph /  11.1 km/h 4.5 mph /  7.2 km/h 45 % 0.00 in /  0 mm
19:55 61.5 °F /  16.4 °C 35.6 °F /  2 °C 29.50 in /  998.9 hPa West 14.0 mph /  22.5 km/h 21.0 mph /  33.8 km/h 38 % 0.00 in /  0 mm
19:59 57.2 °F /  14 °C 36.6 °F /  2.6 °C 29.57 in /  1001.2 hPa WSW 6.9 mph /  11.1 km/h 5.4 mph /  8.7 km/h 46 % 0.00 in /  0 mm
20:00 62.2 °F /  16.8 °C 36.3 °F /  2.4 °C 29.50 in /  998.9 hPa West 10.0 mph /  16.1 km/h 16.0 mph /  25.7 km/h 38 % 0.00 in /  0 mm
20:04 57.0 °F /  13.9 °C 36.4 °F /  2.4 °C 29.57 in /  1001.2 hPa SW 17.3 mph /  27.8 km/h 9.7 mph /  15.6 km/h 46 % 0.00 in /  0 mm
20:05 62.5 °F /  16.9 °C 36.5 °F /  2.5 °C 29.51 in /  999.2 hPa West 12.0 mph /  19.3 km/h 17.0 mph /  27.4 km/h 38 % 0.00 in /  0 mm
20:09 56.8 °F /  13.8 °C 36.8 °F /  2.7 °C 29.58 in /  1001.6 hPa SW 19.6 mph /  31.5 km/h 10.6 mph /  17.1 km/h 47 % 0.00 in /  0 mm
20:10 61.7 °F /  16.5 °C 36.5 °F /  2.5 °C 29.51 in /  999.2 hPa WSW 15.0 mph /  24.1 km/h 21.0 mph /  33.8 km/h 39 % 0.00 in /  0 mm
20:14 56.6 °F /  13.7 °C 37.1 °F /  2.8 °C 29.58 in /  1001.6 hPa SW 15.0 mph /  24.1 km/h 10.2 mph /  16.4 km/h 48 % 0.00 in /  0 mm
20:15 60.7 °F /  15.9 °C 36.8 °F /  2.7 °C 29.51 in /  999.2 hPa SW 10.0 mph /  16.1 km/h 18.0 mph /  29 km/h 41 % 0.00 in /  0 mm
20:19 56.3 °F /  13.5 °C 36.8 °F /  2.7 °C 29.58 in /  1001.6 hPa WSW 11.0 mph /  17.7 km/h 6.8 mph /  10.9 km/h 48 % 0.00 in /  0 mm
20:20 60.7 °F /  15.9 °C 35.6 °F /  2 °C 29.51 in /  999.2 hPa SW 12.0 mph /  19.3 km/h 22.0 mph /  35.4 km/h 39 % 0.00 in /  0 mm
20:24 56.0 °F /  13.3 °C 36.0 °F /  2.2 °C 29.58 in /  1001.6 hPa West 16.1 mph /  25.9 km/h 10.8 mph /  17.4 km/h 47 % 0.00 in /  0 mm
20:25 61.4 °F /  16.3 °C 36.2 °F /  2.3 °C 29.52 in /  999.5 hPa SW 8.0 mph /  12.9 km/h 17.0 mph /  27.4 km/h 39 % 0.00 in /  0 mm
20:29 55.8 °F /  13.2 °C 35.9 °F /  2.2 °C 29.58 in /  1001.6 hPa WSW 13.8 mph /  22.2 km/h 9.5 mph /  15.3 km/h 47 % 0.00 in /  0 mm
20:30 61.8 °F /  16.6 °C 36.6 °F /  2.6 °C 29.52 in /  999.5 hPa WSW 10.0 mph /  16.1 km/h 16.0 mph /  25.7 km/h 39 % 0.00 in /  0 mm
20:34 55.6 °F /  13.1 °C 36.2 °F /  2.3 °C 29.59 in /  1001.9 hPa WSW 11.5 mph /  18.5 km/h 7.8 mph /  12.6 km/h 48 % 0.00 in /  0 mm
20:35 62.0 °F /  16.7 °C 36.7 °F /  2.6 °C 29.52 in /  999.5 hPa West 9.0 mph /  14.5 km/h 16.0 mph /  25.7 km/h 39 % 0.00 in /  0 mm
20:39 55.2 °F /  12.9 °C 35.8 °F /  2.1 °C 29.59 in /  1001.9 hPa West 11.5 mph /  18.5 km/h 9.5 mph /  15.3 km/h 48 % 0.00 in /  0 mm
20:40 61.7 °F /  16.5 °C 35.8 °F /  2.1 °C 29.52 in /  999.5 hPa West 14.0 mph /  22.5 km/h 21.0 mph /  33.8 km/h 38 % 0.00 in /  0 mm
20:44 55.0 °F /  12.8 °C 35.7 °F /  2.1 °C 29.59 in /  1001.9 hPa West 11.5 mph /  18.5 km/h 6.9 mph /  11.1 km/h 48 % 0.00 in /  0 mm
20:45 61.3 °F /  16.3 °C 36.8 °F /  2.7 °C 29.53 in /  999.9 hPa WSW 9.0 mph /  14.5 km/h 16.0 mph /  25.7 km/h 40 % 0.00 in /  0 mm
20:49 54.7 °F /  12.6 °C 35.4 °F /  1.9 °C 29.59 in /  1001.9 hPa West 10.4 mph /  16.7 km/h 8.4 mph /  13.5 km/h 48 % 0.00 in /  0 mm
20:50 61.2 °F /  16.2 °C 36.7 °F /  2.6 °C 29.53 in /  999.9 hPa SW 12.0 mph /  19.3 km/h 17.0 mph /  27.4 km/h 40 % 0.00 in /  0 mm
20:54 54.5 °F /  12.5 °C 35.7 °F /  2.1 °C 29.59 in /  1001.9 hPa WSW 9.0 mph /  14.5 km/h 5.8 mph /  9.3 km/h 49 % 0.00 in /  0 mm
20:55 60.8 °F /  16 °C 36.3 °F /  2.4 °C 29.54 in /  1000.2 hPa SW 12.0 mph /  19.3 km/h 16.0 mph /  25.7 km/h 40 % 0.00 in /  0 mm
20:59 54.3 °F /  12.4 °C 35.5 °F /  1.9 °C 29.60 in /  1002.3 hPa West 11.5 mph /  18.5 km/h 5.4 mph /  8.7 km/h 49 % 0.00 in /  0 mm
21:00 60.3 °F /  15.7 °C 36.5 °F /  2.5 °C 29.54 in /  1000.2 hPa SW 12.0 mph /  19.3 km/h 19.0 mph /  30.6 km/h 41 % 0.00 in /  0 mm
21:04 54.3 °F /  12.4 °C 36.0 °F /  2.2 °C 29.60 in /  1002.3 hPa West 9.2 mph /  14.8 km/h 5.6 mph /  9 km/h 50 % 0.00 in /  0 mm
21:05 60.2 °F /  15.7 °C 36.4 °F /  2.4 °C 29.54 in /  1000.2 hPa WSW 12.0 mph /  19.3 km/h 18.0 mph /  29 km/h 41 % 0.00 in /  0 mm
21:09 54.1 °F /  12.3 °C 35.9 °F /  2.2 °C 29.60 in /  1002.3 hPa West 5.8 mph /  9.3 km/h 3.3 mph /  5.3 km/h 50 % 0.00 in /  0 mm
21:10 59.9 °F /  15.5 °C 35.5 °F /  1.9 °C 29.54 in /  1000.2 hPa WSW 12.0 mph /  19.3 km/h 22.0 mph /  35.4 km/h 40 % 0.00 in /  0 mm
21:14 53.8 °F /  12.1 °C 36.1 °F /  2.3 °C 29.60 in /  1002.3 hPa West 6.9 mph /  11.1 km/h 4.2 mph /  6.8 km/h 51 % 0.00 in /  0 mm
21:15 59.7 °F /  15.4 °C 34.7 °F /  1.5 °C 29.55 in /  1000.6 hPa WSW 12.0 mph /  19.3 km/h 22.0 mph /  35.4 km/h 39 % 0.00 in /  0 mm
21:19 53.5 °F /  11.9 °C 35.8 °F /  2.1 °C 29.60 in /  1002.3 hPa West 7.0 mph /  11.3 km/h 6.5 mph /  10.5 km/h 51 % 0.00 in /  0 mm
21:20 59.4 °F /  15.2 °C 35.1 °F /  1.7 °C 29.55 in /  1000.6 hPa West 14.0 mph /  22.5 km/h 25.0 mph /  40.2 km/h 40 % 0.00 in /  0 mm
21:24 53.5 °F /  11.9 °C 36.3 °F /  2.4 °C 29.61 in /  1002.6 hPa West 6.9 mph /  11.1 km/h 4.2 mph /  6.8 km/h 52 % 0.00 in /  0 mm
21:25 59.0 °F /  15 °C 34.7 °F /  1.5 °C 29.55 in /  1000.6 hPa West 10.0 mph /  16.1 km/h 19.0 mph /  30.6 km/h 40 % 0.00 in /  0 mm
21:29 53.2 °F /  11.8 °C 36.5 °F /  2.5 °C 29.61 in /  1002.6 hPa West 3.5 mph /  5.6 km/h 2.9 mph /  4.7 km/h 53 % 0.00 in /  0 mm
21:30 59.0 °F /  15 °C 35.3 °F /  1.8 °C 29.56 in /  1000.9 hPa West 8.0 mph /  12.9 km/h 17.0 mph /  27.4 km/h 41 % 0.00 in /  0 mm
21:34 53.0 °F /  11.7 °C 36.3 °F /  2.4 °C 29.61 in /  1002.6 hPa West 6.9 mph /  11.1 km/h 4.5 mph /  7.2 km/h 53 % 0.00 in /  0 mm
21:35 58.8 °F /  14.9 °C 34.5 °F /  1.4 °C 29.56 in /  1000.9 hPa WSW 9.0 mph /  14.5 km/h 18.0 mph /  29 km/h 40 % 0.00 in /  0 mm
21:38 53.0 °F /  11.7 °C 36.3 °F /  2.4 °C 29.61 in /  1002.6 hPa West 6.9 mph /  11.1 km/h 6.9 mph /  11.1 km/h 53 % 0.00 in /  0 mm
21:40 58.4 °F /  14.7 °C 34.8 °F /  1.6 °C 29.56 in /  1000.9 hPa WSW 8.0 mph /  12.9 km/h 15.0 mph /  24.1 km/h 41 % 0.00 in /  0 mm
21:44 52.9 °F /  11.6 °C 36.7 °F /  2.6 °C 29.62 in /  1002.9 hPa West 5.8 mph /  9.3 km/h 4.2 mph /  6.8 km/h 54 % 0.00 in /  0 mm
21:45 57.8 °F /  14.3 °C 34.8 °F /  1.6 °C 29.56 in /  1000.9 hPa WSW 7.0 mph /  11.3 km/h 11.0 mph /  17.7 km/h 42 % 0.00 in /  0 mm
21:49 52.8 °F /  11.6 °C 36.6 °F /  2.6 °C 29.62 in /  1002.9 hPa West 6.0 mph /  9.7 km/h 3.5 mph /  5.6 km/h 54 % 0.00 in /  0 mm
21:50 57.4 °F /  14.1 °C 35.6 °F /  2 °C 29.57 in /  1001.2 hPa WSW 7.0 mph /  11.3 km/h 13.0 mph /  20.9 km/h 44 % 0.00 in /  0 mm
21:54 52.6 °F /  11.4 °C 36.9 °F /  2.7 °C 29.62 in /  1002.9 hPa West 4.6 mph /  7.4 km/h 4.7 mph /  7.6 km/h 55 % 0.00 in /  0 mm
21:55 57.1 °F /  13.9 °C 35.9 °F /  2.2 °C 29.57 in /  1001.2 hPa West 3.0 mph /  4.8 km/h 17.0 mph /  27.4 km/h 45 % 0.00 in /  0 mm
21:59 52.5 °F /  11.4 °C 37.2 °F /  2.9 °C 29.63 in /  1003.3 hPa West 5.0 mph /  8 km/h 3.7 mph /  6 km/h 56 % 0.00 in /  0 mm
22:00 52.5 °F /  11.4 °C 37.2 °F /  2.9 °C 29.63 in /  1003.3 hPa West 5.8 mph /  9.3 km/h 3.9 mph /  6.3 km/h 56 % 0.00 in /  0 mm
22:05 57.2 °F /  14 °C 36.6 °F /  2.6 °C 29.57 in /  1001.2 hPa WSW 5.0 mph /  8 km/h 7.0 mph /  11.3 km/h 46 % 0.00 in /  0 mm
22:09 52.4 °F /  11.3 °C 37.6 °F /  3.1 °C 29.63 in /  1003.3 hPa West 5.0 mph /  8 km/h 4.4 mph /  7.1 km/h 57 % 0.00 in /  0 mm
22:10 57.0 °F /  13.9 °C 37.0 °F /  2.8 °C 29.58 in /  1001.6 hPa SW 8.0 mph /  12.9 km/h 17.0 mph /  27.4 km/h 47 % 0.00 in /  0 mm
22:14 52.1 °F /  11.2 °C 37.8 °F /  3.2 °C 29.63 in /  1003.3 hPa West 4.0 mph /  6.4 km/h 1.8 mph /  2.9 km/h 58 % 0.00 in /  0 mm
22:15 56.8 °F /  13.8 °C 36.8 °F /  2.7 °C 29.58 in /  1001.6 hPa SW 8.0 mph /  12.9 km/h 19.0 mph /  30.6 km/h 47 % 0.00 in /  0 mm
22:16 52.0 °F /  11.1 °C 37.7 °F /  3.2 °C 29.64 in /  1003.6 hPa West 6.0 mph /  9.7 km/h 2.4 mph /  3.9 km/h 58 % 0.00 in /  0 mm
22:20 56.6 °F /  13.7 °C 37.1 °F /  2.8 °C 29.58 in /  1001.6 hPa SW 6.0 mph /  9.7 km/h 15.0 mph /  24.1 km/h 48 % 0.00 in /  0 mm
22:24 51.7 °F /  10.9 °C 37.4 °F /  3 °C 29.64 in /  1003.6 hPa West 5.8 mph /  9.3 km/h 5.8 mph /  9.3 km/h 58 % 0.00 in /  0 mm
22:25 56.3 °F /  13.5 °C 36.8 °F /  2.7 °C 29.58 in /  1001.6 hPa WSW 9.0 mph /  14.5 km/h 15.0 mph /  24.1 km/h 48 % 0.00 in /  0 mm
22:29 51.7 °F /  10.9 °C 37.8 °F /  3.2 °C 29.64 in /  1003.6 hPa West 3.5 mph /  5.6 km/h 2.8 mph /  4.5 km/h 59 % 0.00 in /  0 mm
22:30 56.0 °F /  13.3 °C 36.0 °F /  2.2 °C 29.58 in /  1001.6 hPa WSW 10.0 mph /  16.1 km/h 19.0 mph /  30.6 km/h 47 % 0.00 in /  0 mm
22:34 51.5 °F /  10.8 °C 37.6 °F /  3.1 °C 29.64 in /  1003.6 hPa West 3.5 mph /  5.6 km/h 3.1 mph /  5 km/h 59 % 0.00 in /  0 mm
22:35 55.8 °F /  13.2 °C 36.4 °F /  2.4 °C 29.58 in /  1001.6 hPa West 8.0 mph /  12.9 km/h 16.0 mph /  25.7 km/h 48 % 0.00 in /  0 mm
22:36 51.5 °F /  10.8 °C 37.6 °F /  3.1 °C 29.64 in /  1003.6 hPa West 3.5 mph /  5.6 km/h 2.4 mph /  3.9 km/h 59 % 0.00 in /  0 mm
22:40 55.5 °F /  13.1 °C 36.1 °F /  2.3 °C 29.59 in /  1001.9 hPa West 8.0 mph /  12.9 km/h 14.0 mph /  22.5 km/h 48 % 0.00 in /  0 mm
22:44 51.1 °F /  10.6 °C 37.7 °F /  3.2 °C 29.65 in /  1003.9 hPa West 3.5 mph /  5.6 km/h 3.5 mph /  5.6 km/h 60 % 0.00 in /  0 mm
22:45 55.1 °F /  12.8 °C 35.7 °F /  2.1 °C 29.59 in /  1001.9 hPa West 12.0 mph /  19.3 km/h 16.0 mph /  25.7 km/h 48 % 0.00 in /  0 mm
22:49 50.9 °F /  10.5 °C 37.9 °F /  3.3 °C 29.65 in /  1003.9 hPa West 4.0 mph /  6.4 km/h 3.4 mph /  5.5 km/h 61 % 0.00 in /  0 mm
22:50 54.9 °F /  12.7 °C 35.0 °F /  1.7 °C 29.59 in /  1001.9 hPa West 10.0 mph /  16.1 km/h 13.0 mph /  20.9 km/h 47 % 0.00 in /  0 mm
22:52 50.7 °F /  10.4 °C 38.1 °F /  3.4 °C 29.65 in /  1003.9 hPa West 3.5 mph /  5.6 km/h 2.7 mph /  4.3 km/h 62 % 0.00 in /  0 mm
22:55 54.7 °F /  12.6 °C 35.4 °F /  1.9 °C 29.59 in /  1001.9 hPa West 5.0 mph /  8 km/h 11.0 mph /  17.7 km/h 48 % 0.00 in /  0 mm
22:59 50.5 °F /  10.3 °C 38.0 °F /  3.3 °C 29.65 in /  1003.9 hPa West 4.0 mph /  6.4 km/h 3.5 mph /  5.6 km/h 62 % 0.00 in /  0 mm
23:00 54.4 °F /  12.4 °C 35.1 °F /  1.7 °C 29.59 in /  1001.9 hPa WSW 8.0 mph /  12.9 km/h 10.0 mph /  16.1 km/h 48 % 0.00 in /  0 mm
23:04 50.7 °F /  10.4 °C 37.7 °F /  3.2 °C 29.66 in /  1004.3 hPa West 4.6 mph /  7.4 km/h 3.2 mph /  5.1 km/h 61 % 0.00 in /  0 mm
23:05 54.3 °F /  12.4 °C 35.5 °F /  1.9 °C 29.60 in /  1002.3 hPa WSW 9.0 mph /  14.5 km/h 13.0 mph /  20.9 km/h 49 % 0.00 in /  0 mm
23:09 50.9 °F /  10.5 °C 37.9 °F /  3.3 °C 29.66 in /  1004.3 hPa West 5.0 mph /  8 km/h 3.8 mph /  6.1 km/h 61 % 0.00 in /  0 mm
23:10 50.9 °F /  10.5 °C 37.9 °F /  3.3 °C 29.66 in /  1004.3 hPa West 3.0 mph /  4.8 km/h 6.0 mph /  9.7 km/h 61 % 0.00 in /  0 mm
23:10 54.2 °F /  12.3 °C 35.4 °F /  1.9 °C 29.60 in /  1002.3 hPa West 5.0 mph /  8 km/h 12.0 mph /  19.3 km/h 49 % 0.00 in /  0 mm
23:15 54.0 °F /  12.2 °C 35.8 °F /  2.1 °C 29.60 in /  1002.3 hPa West 5.0 mph /  8 km/h 9.0 mph /  14.5 km/h 50 % 0.00 in /  0 mm
23:19 51.7 °F /  10.9 °C 37.4 °F /  3 °C 29.66 in /  1004.3 hPa WSW 5.8 mph /  9.3 km/h 3.2 mph /  5.1 km/h 58 % 0.00 in /  0 mm
23:20 53.8 °F /  12.1 °C 36.1 °F /  2.3 °C 29.60 in /  1002.3 hPa West 3.0 mph /  4.8 km/h 7.0 mph /  11.3 km/h 51 % 0.00 in /  0 mm
23:24 51.6 °F /  10.9 °C 37.3 °F /  2.9 °C 29.66 in /  1004.3 hPa WSW 6.9 mph /  11.1 km/h 3.8 mph /  6.1 km/h 58 % 0.00 in /  0 mm
23:25 53.6 °F /  12 °C 36.4 °F /  2.4 °C 29.61 in /  1002.6 hPa West 6.0 mph /  9.7 km/h 8.0 mph /  12.9 km/h 52 % 0.00 in /  0 mm
23:29 51.6 °F /  10.9 °C 37.3 °F /  2.9 °C 29.66 in /  1004.3 hPa West 8.1 mph /  13 km/h 5.0 mph /  8 km/h 58 % 0.00 in /  0 mm
23:30 53.4 °F /  11.9 °C 36.2 °F /  2.3 °C 29.61 in /  1002.6 hPa West 3.0 mph /  4.8 km/h 7.0 mph /  11.3 km/h 52 % 0.00 in /  0 mm
23:34 51.7 °F /  10.9 °C 37.4 °F /  3 °C 29.66 in /  1004.3 hPa WSW 5.8 mph /  9.3 km/h 4.6 mph /  7.4 km/h 58 % 0.00 in /  0 mm
23:35 53.1 °F /  11.7 °C 36.4 °F /  2.4 °C 29.61 in /  1002.6 hPa West 5.0 mph /  8 km/h 6.0 mph /  9.7 km/h 53 % 0.00 in /  0 mm
23:39 51.6 °F /  10.9 °C 37.7 °F /  3.2 °C 29.66 in /  1004.3 hPa WSW 5.8 mph /  9.3 km/h 2.8 mph /  4.5 km/h 59 % 0.00 in /  0 mm
23:40 53.0 °F /  11.7 °C 36.3 °F /  2.4 °C 29.61 in /  1002.6 hPa West 3.0 mph /  4.8 km/h 9.0 mph /  14.5 km/h 53 % 0.00 in /  0 mm
23:44 51.7 °F /  10.9 °C 37.4 °F /  3 °C 29.66 in /  1004.3 hPa WSW 11.5 mph /  18.5 km/h 4.9 mph /  7.9 km/h 58 % 0.00 in /  0 mm
23:45 53.0 °F /  11.7 °C 36.3 °F /  2.4 °C 29.62 in /  1002.9 hPa West 3.0 mph /  4.8 km/h 7.0 mph /  11.3 km/h 53 % 0.00 in /  0 mm
23:49 51.9 °F /  11.1 °C 37.6 °F /  3.1 °C 29.66 in /  1004.3 hPa West 8.1 mph /  13 km/h 5.5 mph /  8.9 km/h 58 % 0.00 in /  0 mm
23:50 52.8 °F /  11.6 °C 36.6 °F /  2.6 °C 29.62 in /  1002.9 hPa West 3.0 mph /  4.8 km/h 6.0 mph /  9.7 km/h 54 % 0.00 in /  0 mm
23:54 52.0 °F /  11.1 °C 37.7 °F /  3.2 °C 29.66 in /  1004.3 hPa West 4.6 mph /  7.4 km/h 2.7 mph /  4.3 km/h 58 % 0.00 in /  0 mm
23:55 52.8 °F /  11.6 °C 36.6 °F /  2.6 °C 29.62 in /  1002.9 hPa West 3.0 mph /  4.8 km/h 7.0 mph /  11.3 km/h 54 % 0.00 in /  0 mm
23:59 52.0 °F /  11.1 °C 38.1 °F /  3.4 °C 29.66 in /  1004.3 hPa WNW 9.0 mph /  14.5 km/h 7.0 mph /  11.3 km/h 59 % 0.00 in /  0 mm
Ararat Weather
Compliments of Weather Underground - 3.75 mb
Click here to send mail.


ABOUT

Live weather data from Ararat, Victoria, Australia, 3377
Data uploaded from Cumulus every 5 minutes to Weather Underground.
This site then downloads the raw data for formatting and display.
Metric and imperial data can be displayed. Graphs and historical data available.
Includes Sun and Moon times and rain image live from BOM.

Check out Ararat Weather on Facebook, Twitter and Google +

Help support ongoing costs by checking out the ads





Follow @AraratWeather